<?xml version="1.0" encoding="UTF-8" standalone="no" ?>
<gpx xmlns="http://www.topografix.com/GPX/1/1" xmlns:xsi="http://www.w3.org/2001/XMLSchema-instance" xsi:schemaLocation="http://www.topografix.com/GPX/1/1 http://www.topografix.com/GPX/1/1/gpx.xsd" version="1.1" creator="VisuGPX - https://www.visugpx.com">
  <metadata>
    <name>112011</name>
    <desc><![CDATA[très agréable sortie 24.5]]></desc>
  </metadata>
  <trk>
    <name><![CDATA[ACTIVE LOG083851]]></name>
    <trkseg>
      <trkpt lat="48.38261" lon="-4.50635">
        <ele>56.794</ele>
        <time>2011-04-07T06:38:51Z</time>
      </trkpt>
      <trkpt lat="48.38261" lon="-4.50635">
        <ele>63.36</ele>
        <time>2011-04-07T06:39:57Z</time>
      </trkpt>
      <trkpt lat="48.38261" lon="-4.50635">
        <ele>56.02</ele>
        <time>2011-04-07T06:39:58Z</time>
      </trkpt>
      <trkpt lat="48.38261" lon="-4.50635">
        <ele>57.568</ele>
        <time>2011-04-07T06:39:59Z</time>
      </trkpt>
      <trkpt lat="48.38261" lon="-4.50635">
        <ele>54.035</ele>
        <time>2011-04-07T06:40:01Z</time>
      </trkpt>
      <trkpt lat="48.38261" lon="-4.50635">
        <ele>55.724</ele>
        <time>2011-04-07T06:40:02Z</time>
      </trkpt>
      <trkpt lat="48.38261" lon="-4.50635">
        <ele>57.034</ele>
        <time>2011-04-07T06:40:03Z</time>
      </trkpt>
      <trkpt lat="48.38261" lon="-4.50635">
        <ele>53.726</ele>
        <time>2011-04-07T06:40:48Z</time>
      </trkpt>
      <trkpt lat="48.38261" lon="-4.50635">
        <ele>52.035</ele>
        <time>2011-04-07T06:41:22Z</time>
      </trkpt>
      <trkpt lat="48.38261" lon="-4.50635">
        <ele>54.212</ele>
        <time>2011-04-07T06:41:39Z</time>
      </trkpt>
      <trkpt lat="48.38261" lon="-4.50635">
        <ele>52.852</ele>
        <time>2011-04-07T06:41:40Z</time>
      </trkpt>
      <trkpt lat="48.38261" lon="-4.50635">
        <ele>54.059</ele>
        <time>2011-04-07T06:41:49Z</time>
      </trkpt>
      <trkpt lat="48.38261" lon="-4.50635">
        <ele>54.067</ele>
        <time>2011-04-07T06:41:53Z</time>
      </trkpt>
      <trkpt lat="48.38261" lon="-4.50635">
        <ele>54.569</ele>
        <time>2011-04-07T06:42:02Z</time>
      </trkpt>
      <trkpt lat="48.38261" lon="-4.50635">
        <ele>61.542</ele>
        <time>2011-04-07T06:42:10Z</time>
      </trkpt>
      <trkpt lat="48.38261" lon="-4.50635">
        <ele>53.425</ele>
        <time>2011-04-07T06:42:11Z</time>
      </trkpt>
      <trkpt lat="48.38261" lon="-4.50635">
        <ele>52.727</ele>
        <time>2011-04-07T06:42:13Z</time>
      </trkpt>
      <trkpt lat="48.38261" lon="-4.50635">
        <ele>49.48</ele>
        <time>2011-04-07T06:45:00Z</time>
      </trkpt>
    </trkseg>
  </trk>
  <trk>
    <name><![CDATA[ACTIVE LOG084534]]></name>
    <trkseg>
      <trkpt lat="48.38242" lon="-4.50372">
        <ele>47.475</ele>
        <time>2011-04-07T06:45:34Z</time>
      </trkpt>
      <trkpt lat="48.38241" lon="-4.50373">
        <ele>47.567</ele>
        <time>2011-04-07T06:45:35Z</time>
      </trkpt>
      <trkpt lat="48.38233" lon="-4.50354">
        <ele>44.872</ele>
        <time>2011-04-07T06:45:48Z</time>
      </trkpt>
      <trkpt lat="48.38233" lon="-4.50354">
        <ele>44.444</ele>
        <time>2011-04-07T06:45:49Z</time>
      </trkpt>
      <trkpt lat="48.38227" lon="-4.50276">
        <ele>43.921</ele>
        <time>2011-04-07T06:45:54Z</time>
      </trkpt>
      <trkpt lat="48.38226" lon="-4.50245">
        <ele>43.228</ele>
        <time>2011-04-07T06:45:58Z</time>
      </trkpt>
      <trkpt lat="48.38238" lon="-4.5021">
        <ele>43.107</ele>
        <time>2011-04-07T06:46:03Z</time>
      </trkpt>
      <trkpt lat="48.3831" lon="-4.50226">
        <ele>39.841</ele>
        <time>2011-04-07T06:46:16Z</time>
      </trkpt>
      <trkpt lat="48.3832" lon="-4.50229">
        <ele>39.101</ele>
        <time>2011-04-07T06:46:18Z</time>
      </trkpt>
      <trkpt lat="48.38358" lon="-4.50239">
        <ele>36.01</ele>
        <time>2011-04-07T06:46:26Z</time>
      </trkpt>
      <trkpt lat="48.38366" lon="-4.5024">
        <ele>35.003</ele>
        <time>2011-04-07T06:46:28Z</time>
      </trkpt>
      <trkpt lat="48.38383" lon="-4.50242">
        <ele>32.955</ele>
        <time>2011-04-07T06:46:38Z</time>
      </trkpt>
      <trkpt lat="48.38383" lon="-4.50242">
        <ele>32.117</ele>
        <time>2011-04-07T06:46:42Z</time>
      </trkpt>
      <trkpt lat="48.38408" lon="-4.5025">
        <ele>32.152</ele>
        <time>2011-04-07T06:46:44Z</time>
      </trkpt>
      <trkpt lat="48.38429" lon="-4.50255">
        <ele>35.246</ele>
        <time>2011-04-07T06:46:52Z</time>
      </trkpt>
      <trkpt lat="48.38432" lon="-4.50256">
        <ele>35.891</ele>
        <time>2011-04-07T06:46:54Z</time>
      </trkpt>
      <trkpt lat="48.38458" lon="-4.50262">
        <ele>39.019</ele>
        <time>2011-04-07T06:47:04Z</time>
      </trkpt>
      <trkpt lat="48.38478" lon="-4.50268">
        <ele>40.937</ele>
        <time>2011-04-07T06:47:11Z</time>
      </trkpt>
      <trkpt lat="48.38506" lon="-4.50276">
        <ele>43.942</ele>
        <time>2011-04-07T06:47:22Z</time>
      </trkpt>
      <trkpt lat="48.38546" lon="-4.50288">
        <ele>46.901</ele>
        <time>2011-04-07T06:47:36Z</time>
      </trkpt>
      <trkpt lat="48.38576" lon="-4.50295">
        <ele>49.921</ele>
        <time>2011-04-07T06:47:46Z</time>
      </trkpt>
      <trkpt lat="48.38587" lon="-4.50297">
        <ele>50.941</ele>
        <time>2011-04-07T06:47:58Z</time>
      </trkpt>
      <trkpt lat="48.38613" lon="-4.50303">
        <ele>51.269</ele>
        <time>2011-04-07T06:48:22Z</time>
      </trkpt>
      <trkpt lat="48.38617" lon="-4.50303">
        <ele>51.338</ele>
        <time>2011-04-07T06:48:23Z</time>
      </trkpt>
      <trkpt lat="48.38697" lon="-4.50314">
        <ele>54.31</ele>
        <time>2011-04-07T06:48:41Z</time>
      </trkpt>
      <trkpt lat="48.38776" lon="-4.50334">
        <ele>51.338</ele>
        <time>2011-04-07T06:48:55Z</time>
      </trkpt>
      <trkpt lat="48.3885" lon="-4.50349">
        <ele>49.713</ele>
        <time>2011-04-07T06:49:05Z</time>
      </trkpt>
      <trkpt lat="48.38877" lon="-4.50354">
        <ele>46.832</ele>
        <time>2011-04-07T06:49:08Z</time>
      </trkpt>
      <trkpt lat="48.38986" lon="-4.5036">
        <ele>46.642</ele>
        <time>2011-04-07T06:49:22Z</time>
      </trkpt>
      <trkpt lat="48.39011" lon="-4.50358">
        <ele>46.732</ele>
        <time>2011-04-07T06:49:26Z</time>
      </trkpt>
      <trkpt lat="48.3908" lon="-4.50361">
        <ele>50.32</ele>
        <time>2011-04-07T06:49:39Z</time>
      </trkpt>
      <trkpt lat="48.39154" lon="-4.50371">
        <ele>52.294</ele>
        <time>2011-04-07T06:49:54Z</time>
      </trkpt>
      <trkpt lat="48.39172" lon="-4.50377">
        <ele>51.246</ele>
        <time>2011-04-07T06:49:58Z</time>
      </trkpt>
      <trkpt lat="48.39203" lon="-4.50362">
        <ele>47.387</ele>
        <time>2011-04-07T06:50:05Z</time>
      </trkpt>
      <trkpt lat="48.39203" lon="-4.50362">
        <ele>46.39</ele>
        <time>2011-04-07T06:50:07Z</time>
      </trkpt>
      <trkpt lat="48.39209" lon="-4.5033">
        <ele>45.573</ele>
        <time>2011-04-07T06:50:09Z</time>
      </trkpt>
      <trkpt lat="48.39241" lon="-4.50166">
        <ele>43.387</ele>
        <time>2011-04-07T06:50:31Z</time>
      </trkpt>
      <trkpt lat="48.39284" lon="-4.49958">
        <ele>43.03</ele>
        <time>2011-04-07T06:51:00Z</time>
      </trkpt>
      <trkpt lat="48.39317" lon="-4.49808">
        <ele>39.998</ele>
        <time>2011-04-07T06:51:17Z</time>
      </trkpt>
      <trkpt lat="48.39338" lon="-4.49702">
        <ele>36.944</ele>
        <time>2011-04-07T06:51:27Z</time>
      </trkpt>
      <trkpt lat="48.39374" lon="-4.49531">
        <ele>33.809</ele>
        <time>2011-04-07T06:51:45Z</time>
      </trkpt>
      <trkpt lat="48.39389" lon="-4.49458">
        <ele>32.322</ele>
        <time>2011-04-07T06:51:56Z</time>
      </trkpt>
      <trkpt lat="48.39389" lon="-4.49456">
        <ele>32.465</ele>
        <time>2011-04-07T06:51:57Z</time>
      </trkpt>
      <trkpt lat="48.39376" lon="-4.49398">
        <ele>32.308</ele>
        <time>2011-04-07T06:52:01Z</time>
      </trkpt>
      <trkpt lat="48.39397" lon="-4.49411">
        <ele>31.117</ele>
        <time>2011-04-07T06:52:12Z</time>
      </trkpt>
      <trkpt lat="48.39409" lon="-4.49365">
        <ele>30.694</ele>
        <time>2011-04-07T06:52:22Z</time>
      </trkpt>
      <trkpt lat="48.39425" lon="-4.4938">
        <ele>30.594</ele>
        <time>2011-04-07T06:52:26Z</time>
      </trkpt>
      <trkpt lat="48.3943" lon="-4.4939">
        <ele>29.627</ele>
        <time>2011-04-07T06:52:28Z</time>
      </trkpt>
      <trkpt lat="48.39455" lon="-4.49438">
        <ele>29.845</ele>
        <time>2011-04-07T06:52:37Z</time>
      </trkpt>
      <trkpt lat="48.39449" lon="-4.49449">
        <ele>30.608</ele>
        <time>2011-04-07T06:52:42Z</time>
      </trkpt>
      <trkpt lat="48.39405" lon="-4.49508">
        <ele>31.501</ele>
        <time>2011-04-07T06:52:56Z</time>
      </trkpt>
      <trkpt lat="48.39405" lon="-4.49508">
        <ele>31.644</ele>
        <time>2011-04-07T06:53:04Z</time>
      </trkpt>
      <trkpt lat="48.39405" lon="-4.49508">
        <ele>31.728</ele>
        <time>2011-04-07T06:53:16Z</time>
      </trkpt>
      <trkpt lat="48.39409" lon="-4.49502">
        <ele>32.493</ele>
        <time>2011-04-07T06:56:38Z</time>
      </trkpt>
      <trkpt lat="48.39455" lon="-4.49441">
        <ele>31.437</ele>
        <time>2011-04-07T06:56:55Z</time>
      </trkpt>
      <trkpt lat="48.39453" lon="-4.49433">
        <ele>31.267</ele>
        <time>2011-04-07T06:56:59Z</time>
      </trkpt>
      <trkpt lat="48.39429" lon="-4.49388">
        <ele>31.331</ele>
        <time>2011-04-07T06:57:09Z</time>
      </trkpt>
      <trkpt lat="48.39413" lon="-4.49358">
        <ele>31.236</ele>
        <time>2011-04-07T06:57:16Z</time>
      </trkpt>
      <trkpt lat="48.39387" lon="-4.49299">
        <ele>31.483</ele>
        <time>2011-04-07T06:57:27Z</time>
      </trkpt>
      <trkpt lat="48.39365" lon="-4.49254">
        <ele>31.999</ele>
        <time>2011-04-07T06:57:39Z</time>
      </trkpt>
      <trkpt lat="48.39347" lon="-4.49218">
        <ele>32.189</ele>
        <time>2011-04-07T06:57:46Z</time>
      </trkpt>
      <trkpt lat="48.39314" lon="-4.49163">
        <ele>35.844</ele>
        <time>2011-04-07T06:57:59Z</time>
      </trkpt>
      <trkpt lat="48.39293" lon="-4.49126">
        <ele>38.88</ele>
        <time>2011-04-07T06:58:10Z</time>
      </trkpt>
      <trkpt lat="48.39251" lon="-4.49051">
        <ele>41.96</ele>
        <time>2011-04-07T06:58:26Z</time>
      </trkpt>
      <trkpt lat="48.39246" lon="-4.4904">
        <ele>42.633</ele>
        <time>2011-04-07T06:58:35Z</time>
      </trkpt>
      <trkpt lat="48.39246" lon="-4.4904">
        <ele>42.792</ele>
        <time>2011-04-07T06:59:01Z</time>
      </trkpt>
      <trkpt lat="48.39237" lon="-4.49023">
        <ele>43.804</ele>
        <time>2011-04-07T06:59:10Z</time>
      </trkpt>
      <trkpt lat="48.3919" lon="-4.48931">
        <ele>46.758</ele>
        <time>2011-04-07T06:59:28Z</time>
      </trkpt>
      <trkpt lat="48.39156" lon="-4.48865">
        <ele>48.393</ele>
        <time>2011-04-07T06:59:44Z</time>
      </trkpt>
      <trkpt lat="48.39148" lon="-4.4885">
        <ele>48.439</ele>
        <time>2011-04-07T06:59:55Z</time>
      </trkpt>
      <trkpt lat="48.39143" lon="-4.4884">
        <ele>48.422</ele>
        <time>2011-04-07T07:00:03Z</time>
      </trkpt>
      <trkpt lat="48.39142" lon="-4.48813">
        <ele>48.454</ele>
        <time>2011-04-07T07:00:10Z</time>
      </trkpt>
      <trkpt lat="48.39169" lon="-4.48783">
        <ele>50.147</ele>
        <time>2011-04-07T07:00:25Z</time>
      </trkpt>
      <trkpt lat="48.39199" lon="-4.48749">
        <ele>51.725</ele>
        <time>2011-04-07T07:00:36Z</time>
      </trkpt>
      <trkpt lat="48.39221" lon="-4.48756">
        <ele>52.442</ele>
        <time>2011-04-07T07:00:42Z</time>
      </trkpt>
      <trkpt lat="48.39327" lon="-4.48786">
        <ele>55.57</ele>
        <time>2011-04-07T07:01:07Z</time>
      </trkpt>
      <trkpt lat="48.39443" lon="-4.48819">
        <ele>58.622</ele>
        <time>2011-04-07T07:01:34Z</time>
      </trkpt>
      <trkpt lat="48.39528" lon="-4.48844">
        <ele>61.694</ele>
        <time>2011-04-07T07:01:55Z</time>
      </trkpt>
      <trkpt lat="48.3964" lon="-4.48874">
        <ele>59.544</ele>
        <time>2011-04-07T07:02:19Z</time>
      </trkpt>
      <trkpt lat="48.39714" lon="-4.48896">
        <ele>56.39</ele>
        <time>2011-04-07T07:02:35Z</time>
      </trkpt>
      <trkpt lat="48.39726" lon="-4.489">
        <ele>56.333</ele>
        <time>2011-04-07T07:02:40Z</time>
      </trkpt>
      <trkpt lat="48.39726" lon="-4.489">
        <ele>56.153</ele>
        <time>2011-04-07T07:03:02Z</time>
      </trkpt>
      <trkpt lat="48.3973" lon="-4.48901">
        <ele>56.118</ele>
        <time>2011-04-07T07:03:29Z</time>
      </trkpt>
      <trkpt lat="48.39751" lon="-4.48907">
        <ele>55.332</ele>
        <time>2011-04-07T07:03:36Z</time>
      </trkpt>
      <trkpt lat="48.39779" lon="-4.48893">
        <ele>54.628</ele>
        <time>2011-04-07T07:03:42Z</time>
      </trkpt>
      <trkpt lat="48.39791" lon="-4.48882">
        <ele>54.084</ele>
        <time>2011-04-07T07:03:46Z</time>
      </trkpt>
      <trkpt lat="48.39881" lon="-4.48749">
        <ele>54.201</ele>
        <time>2011-04-07T07:04:10Z</time>
      </trkpt>
      <trkpt lat="48.39948" lon="-4.48649">
        <ele>50.7</ele>
        <time>2011-04-07T07:04:24Z</time>
      </trkpt>
      <trkpt lat="48.39975" lon="-4.48607">
        <ele>49.648</ele>
        <time>2011-04-07T07:04:30Z</time>
      </trkpt>
      <trkpt lat="48.40027" lon="-4.48531">
        <ele>46.255</ele>
        <time>2011-04-07T07:04:40Z</time>
      </trkpt>
      <trkpt lat="48.40097" lon="-4.48433">
        <ele>49.115</ele>
        <time>2011-04-07T07:04:55Z</time>
      </trkpt>
      <trkpt lat="48.40108" lon="-4.48414">
        <ele>52.128</ele>
        <time>2011-04-07T07:05:02Z</time>
      </trkpt>
      <trkpt lat="48.4012" lon="-4.4839">
        <ele>52.27</ele>
        <time>2011-04-07T07:05:03Z</time>
      </trkpt>
      <trkpt lat="48.40159" lon="-4.48333">
        <ele>55.886</ele>
        <time>2011-04-07T07:05:16Z</time>
      </trkpt>
      <trkpt lat="48.40224" lon="-4.48239">
        <ele>58.372</ele>
        <time>2011-04-07T07:05:38Z</time>
      </trkpt>
      <trkpt lat="48.40252" lon="-4.482">
        <ele>59.998</ele>
        <time>2011-04-07T07:05:53Z</time>
      </trkpt>
      <trkpt lat="48.40272" lon="-4.48171">
        <ele>59.191</ele>
        <time>2011-04-07T07:06:21Z</time>
      </trkpt>
      <trkpt lat="48.40335" lon="-4.48078">
        <ele>59.71</ele>
        <time>2011-04-07T07:06:33Z</time>
      </trkpt>
      <trkpt lat="48.40434" lon="-4.47933">
        <ele>59.867</ele>
        <time>2011-04-07T07:06:53Z</time>
      </trkpt>
      <trkpt lat="48.405" lon="-4.47837">
        <ele>60.207</ele>
        <time>2011-04-07T07:07:13Z</time>
      </trkpt>
      <trkpt lat="48.40512" lon="-4.47821">
        <ele>59.56</ele>
        <time>2011-04-07T07:07:22Z</time>
      </trkpt>
      <trkpt lat="48.40521" lon="-4.47807">
        <ele>59.236</ele>
        <time>2011-04-07T07:07:30Z</time>
      </trkpt>
      <trkpt lat="48.40536" lon="-4.47784">
        <ele>58.955</ele>
        <time>2011-04-07T07:07:35Z</time>
      </trkpt>
      <trkpt lat="48.40612" lon="-4.47667">
        <ele>61.352</ele>
        <time>2011-04-07T07:07:59Z</time>
      </trkpt>
      <trkpt lat="48.40617" lon="-4.47659">
        <ele>60.695</ele>
        <time>2011-04-07T07:08:02Z</time>
      </trkpt>
      <trkpt lat="48.40623" lon="-4.4765">
        <ele>58.78</ele>
        <time>2011-04-07T07:08:06Z</time>
      </trkpt>
      <trkpt lat="48.40672" lon="-4.47582">
        <ele>55.663</ele>
        <time>2011-04-07T07:08:14Z</time>
      </trkpt>
      <trkpt lat="48.40679" lon="-4.47559">
        <ele>55.834</ele>
        <time>2011-04-07T07:08:17Z</time>
      </trkpt>
      <trkpt lat="48.40684" lon="-4.4754">
        <ele>55.499</ele>
        <time>2011-04-07T07:08:20Z</time>
      </trkpt>
      <trkpt lat="48.40718" lon="-4.47537">
        <ele>53.222</ele>
        <time>2011-04-07T07:08:26Z</time>
      </trkpt>
      <trkpt lat="48.40731" lon="-4.47534">
        <ele>52.622</ele>
        <time>2011-04-07T07:08:28Z</time>
      </trkpt>
      <trkpt lat="48.40788" lon="-4.47546">
        <ele>54.812</ele>
        <time>2011-04-07T07:08:39Z</time>
      </trkpt>
      <trkpt lat="48.40839" lon="-4.47573">
        <ele>58.775</ele>
        <time>2011-04-07T07:08:51Z</time>
      </trkpt>
      <trkpt lat="48.40924" lon="-4.47612">
        <ele>61.033</ele>
        <time>2011-04-07T07:09:10Z</time>
      </trkpt>
      <trkpt lat="48.41027" lon="-4.47626">
        <ele>62.85</ele>
        <time>2011-04-07T07:09:33Z</time>
      </trkpt>
      <trkpt lat="48.4112" lon="-4.47619">
        <ele>62.135</ele>
        <time>2011-04-07T07:09:51Z</time>
      </trkpt>
      <trkpt lat="48.41229" lon="-4.47589">
        <ele>62.937</ele>
        <time>2011-04-07T07:10:13Z</time>
      </trkpt>
      <trkpt lat="48.41243" lon="-4.47565">
        <ele>63.552</ele>
        <time>2011-04-07T07:10:18Z</time>
      </trkpt>
      <trkpt lat="48.41282" lon="-4.47566">
        <ele>63.493</ele>
        <time>2011-04-07T07:10:25Z</time>
      </trkpt>
      <trkpt lat="48.41376" lon="-4.47526">
        <ele>66.563</ele>
        <time>2011-04-07T07:10:44Z</time>
      </trkpt>
      <trkpt lat="48.41444" lon="-4.47513">
        <ele>69.658</ele>
        <time>2011-04-07T07:11:00Z</time>
      </trkpt>
      <trkpt lat="48.41469" lon="-4.47513">
        <ele>70.266</ele>
        <time>2011-04-07T07:11:06Z</time>
      </trkpt>
      <trkpt lat="48.41524" lon="-4.47532">
        <ele>73.678</ele>
        <time>2011-04-07T07:11:20Z</time>
      </trkpt>
      <trkpt lat="48.41569" lon="-4.47548">
        <ele>76.87</ele>
        <time>2011-04-07T07:11:32Z</time>
      </trkpt>
      <trkpt lat="48.41605" lon="-4.47568">
        <ele>79.954</ele>
        <time>2011-04-07T07:11:43Z</time>
      </trkpt>
      <trkpt lat="48.41644" lon="-4.47589">
        <ele>83.159</ele>
        <time>2011-04-07T07:11:54Z</time>
      </trkpt>
      <trkpt lat="48.41738" lon="-4.47641">
        <ele>84.457</ele>
        <time>2011-04-07T07:12:17Z</time>
      </trkpt>
      <trkpt lat="48.41776" lon="-4.4766">
        <ele>83.605</ele>
        <time>2011-04-07T07:12:25Z</time>
      </trkpt>
      <trkpt lat="48.41863" lon="-4.47675">
        <ele>80.232</ele>
        <time>2011-04-07T07:12:40Z</time>
      </trkpt>
      <trkpt lat="48.41936" lon="-4.47683">
        <ele>77.202</ele>
        <time>2011-04-07T07:12:50Z</time>
      </trkpt>
    </trkseg>
  </trk>
  <trk>
    <name><![CDATA[ACTIVE LOG091437]]></name>
    <trkseg>
      <trkpt lat="48.42441" lon="-4.47307">
        <ele>83.604</ele>
        <time>2011-04-07T07:14:36Z</time>
      </trkpt>
      <trkpt lat="48.42454" lon="-4.47311">
        <ele>43.165</ele>
        <time>2011-04-07T07:14:38Z</time>
      </trkpt>
      <trkpt lat="48.42459" lon="-4.47308">
        <ele>43.411</ele>
        <time>2011-04-07T07:14:39Z</time>
      </trkpt>
      <trkpt lat="48.4248" lon="-4.47299">
        <ele>48.648</ele>
        <time>2011-04-07T07:14:43Z</time>
      </trkpt>
      <trkpt lat="48.42496" lon="-4.47292">
        <ele>52.118</ele>
        <time>2011-04-07T07:14:46Z</time>
      </trkpt>
      <trkpt lat="48.42512" lon="-4.47285">
        <ele>55.498</ele>
        <time>2011-04-07T07:14:49Z</time>
      </trkpt>
      <trkpt lat="48.42532" lon="-4.47277">
        <ele>59.088</ele>
        <time>2011-04-07T07:14:53Z</time>
      </trkpt>
      <trkpt lat="48.42553" lon="-4.47274">
        <ele>62.414</ele>
        <time>2011-04-07T07:14:57Z</time>
      </trkpt>
      <trkpt lat="48.42563" lon="-4.47276">
        <ele>64.109</ele>
        <time>2011-04-07T07:14:59Z</time>
      </trkpt>
      <trkpt lat="48.42567" lon="-4.47277">
        <ele>65.551</ele>
        <time>2011-04-07T07:15:01Z</time>
      </trkpt>
      <trkpt lat="48.42589" lon="-4.47285">
        <ele>68.161</ele>
        <time>2011-04-07T07:15:05Z</time>
      </trkpt>
      <trkpt lat="48.42596" lon="-4.47292">
        <ele>69.291</ele>
        <time>2011-04-07T07:15:07Z</time>
      </trkpt>
      <trkpt lat="48.4262" lon="-4.47314">
        <ele>71.56</ele>
        <time>2011-04-07T07:15:12Z</time>
      </trkpt>
      <trkpt lat="48.42701" lon="-4.47345">
        <ele>74.922</ele>
        <time>2011-04-07T07:15:26Z</time>
      </trkpt>
      <trkpt lat="48.42739" lon="-4.47358">
        <ele>77.102</ele>
        <time>2011-04-07T07:15:33Z</time>
      </trkpt>
      <trkpt lat="48.42744" lon="-4.4736">
        <ele>78.705</ele>
        <time>2011-04-07T07:15:42Z</time>
      </trkpt>
      <trkpt lat="48.42752" lon="-4.47362">
        <ele>79.845</ele>
        <time>2011-04-07T07:16:00Z</time>
      </trkpt>
      <trkpt lat="48.42759" lon="-4.47368">
        <ele>80.006</ele>
        <time>2011-04-07T07:16:05Z</time>
      </trkpt>
      <trkpt lat="48.42731" lon="-4.47541">
        <ele>82.235</ele>
        <time>2011-04-07T07:16:26Z</time>
      </trkpt>
      <trkpt lat="48.42706" lon="-4.47612">
        <ele>82.351</ele>
        <time>2011-04-07T07:16:35Z</time>
      </trkpt>
      <trkpt lat="48.42723" lon="-4.47646">
        <ele>83.201</ele>
        <time>2011-04-07T07:16:41Z</time>
      </trkpt>
      <trkpt lat="48.42791" lon="-4.47662">
        <ele>83.007</ele>
        <time>2011-04-07T07:16:52Z</time>
      </trkpt>
      <trkpt lat="48.42908" lon="-4.47684">
        <ele>82.898</ele>
        <time>2011-04-07T07:17:10Z</time>
      </trkpt>
      <trkpt lat="48.42974" lon="-4.47697">
        <ele>82.691</ele>
        <time>2011-04-07T07:17:20Z</time>
      </trkpt>
      <trkpt lat="48.43086" lon="-4.47727">
        <ele>79.473</ele>
        <time>2011-04-07T07:17:37Z</time>
      </trkpt>
      <trkpt lat="48.43139" lon="-4.47741">
        <ele>76.015</ele>
        <time>2011-04-07T07:17:44Z</time>
      </trkpt>
      <trkpt lat="48.43191" lon="-4.47754">
        <ele>72.664</ele>
        <time>2011-04-07T07:17:50Z</time>
      </trkpt>
      <trkpt lat="48.432" lon="-4.47756">
        <ele>72.693</ele>
        <time>2011-04-07T07:17:51Z</time>
      </trkpt>
      <trkpt lat="48.43252" lon="-4.47777">
        <ele>69.499</ele>
        <time>2011-04-07T07:17:57Z</time>
      </trkpt>
      <trkpt lat="48.4326" lon="-4.47783">
        <ele>69.259</ele>
        <time>2011-04-07T07:17:58Z</time>
      </trkpt>
      <trkpt lat="48.43285" lon="-4.47802">
        <ele>67.848</ele>
        <time>2011-04-07T07:18:01Z</time>
      </trkpt>
      <trkpt lat="48.43334" lon="-4.47836">
        <ele>70.964</ele>
        <time>2011-04-07T07:18:08Z</time>
      </trkpt>
      <trkpt lat="48.43357" lon="-4.47853">
        <ele>72.809</ele>
        <time>2011-04-07T07:18:13Z</time>
      </trkpt>
      <trkpt lat="48.43367" lon="-4.47859">
        <ele>73.238</ele>
        <time>2011-04-07T07:18:15Z</time>
      </trkpt>
      <trkpt lat="48.43415" lon="-4.47882">
        <ele>73.77</ele>
        <time>2011-04-07T07:18:25Z</time>
      </trkpt>
      <trkpt lat="48.43461" lon="-4.47894">
        <ele>71.342</ele>
        <time>2011-04-07T07:18:33Z</time>
      </trkpt>
      <trkpt lat="48.43507" lon="-4.47897">
        <ele>68.305</ele>
        <time>2011-04-07T07:18:39Z</time>
      </trkpt>
      <trkpt lat="48.4355" lon="-4.47892">
        <ele>65.178</ele>
        <time>2011-04-07T07:18:44Z</time>
      </trkpt>
      <trkpt lat="48.43572" lon="-4.4789">
        <ele>61.447</ele>
        <time>2011-04-07T07:18:48Z</time>
      </trkpt>
      <trkpt lat="48.43654" lon="-4.47883">
        <ele>59.042</ele>
        <time>2011-04-07T07:18:55Z</time>
      </trkpt>
      <trkpt lat="48.43663" lon="-4.47882">
        <ele>58.432</ele>
        <time>2011-04-07T07:18:56Z</time>
      </trkpt>
      <trkpt lat="48.43711" lon="-4.47847">
        <ele>58.386</ele>
        <time>2011-04-07T07:19:02Z</time>
      </trkpt>
      <trkpt lat="48.43789" lon="-4.47744">
        <ele>60.917</ele>
        <time>2011-04-07T07:19:17Z</time>
      </trkpt>
      <trkpt lat="48.43867" lon="-4.47693">
        <ele>63.359</ele>
        <time>2011-04-07T07:19:32Z</time>
      </trkpt>
      <trkpt lat="48.43965" lon="-4.47681">
        <ele>66.078</ele>
        <time>2011-04-07T07:19:51Z</time>
      </trkpt>
      <trkpt lat="48.44027" lon="-4.47686">
        <ele>66.729</ele>
        <time>2011-04-07T07:20:03Z</time>
      </trkpt>
      <trkpt lat="48.44042" lon="-4.47688">
        <ele>66.387</ele>
        <time>2011-04-07T07:20:06Z</time>
      </trkpt>
      <trkpt lat="48.44067" lon="-4.47689">
        <ele>64.647</ele>
        <time>2011-04-07T07:20:10Z</time>
      </trkpt>
      <trkpt lat="48.44091" lon="-4.47689">
        <ele>63.762</ele>
        <time>2011-04-07T07:20:14Z</time>
      </trkpt>
      <trkpt lat="48.44117" lon="-4.47683">
        <ele>62.341</ele>
        <time>2011-04-07T07:20:17Z</time>
      </trkpt>
      <trkpt lat="48.44219" lon="-4.47637">
        <ele>63.065</ele>
        <time>2011-04-07T07:20:32Z</time>
      </trkpt>
      <trkpt lat="48.44258" lon="-4.4762">
        <ele>66.179</ele>
        <time>2011-04-07T07:20:40Z</time>
      </trkpt>
      <trkpt lat="48.44315" lon="-4.4759">
        <ele>69.535</ele>
        <time>2011-04-07T07:20:51Z</time>
      </trkpt>
      <trkpt lat="48.44325" lon="-4.47585">
        <ele>70.274</ele>
        <time>2011-04-07T07:20:53Z</time>
      </trkpt>
      <trkpt lat="48.44439" lon="-4.4753">
        <ele>70.519</ele>
        <time>2011-04-07T07:21:15Z</time>
      </trkpt>
      <trkpt lat="48.44453" lon="-4.47527">
        <ele>69.651</ele>
        <time>2011-04-07T07:21:17Z</time>
      </trkpt>
      <trkpt lat="48.44486" lon="-4.47522">
        <ele>66.564</ele>
        <time>2011-04-07T07:21:21Z</time>
      </trkpt>
      <trkpt lat="48.44513" lon="-4.47521">
        <ele>64.233</ele>
        <time>2011-04-07T07:21:24Z</time>
      </trkpt>
      <trkpt lat="48.44585" lon="-4.47566">
        <ele>60.057</ele>
        <time>2011-04-07T07:21:32Z</time>
      </trkpt>
      <trkpt lat="48.44662" lon="-4.47627">
        <ele>63.326</ele>
        <time>2011-04-07T07:21:43Z</time>
      </trkpt>
      <trkpt lat="48.44709" lon="-4.47642">
        <ele>66.508</ele>
        <time>2011-04-07T07:21:51Z</time>
      </trkpt>
      <trkpt lat="48.44773" lon="-4.47646">
        <ele>69.551</ele>
        <time>2011-04-07T07:22:04Z</time>
      </trkpt>
      <trkpt lat="48.44882" lon="-4.47627">
        <ele>70.91</ele>
        <time>2011-04-07T07:22:23Z</time>
      </trkpt>
      <trkpt lat="48.44916" lon="-4.47628">
        <ele>72.204</ele>
        <time>2011-04-07T07:22:30Z</time>
      </trkpt>
      <trkpt lat="48.44937" lon="-4.47597">
        <ele>73.508</ele>
        <time>2011-04-07T07:22:35Z</time>
      </trkpt>
      <trkpt lat="48.44967" lon="-4.47475">
        <ele>77.145</ele>
        <time>2011-04-07T07:22:52Z</time>
      </trkpt>
      <trkpt lat="48.44994" lon="-4.47352">
        <ele>79.441</ele>
        <time>2011-04-07T07:23:08Z</time>
      </trkpt>
      <trkpt lat="48.45005" lon="-4.47264">
        <ele>79.096</ele>
        <time>2011-04-07T07:23:22Z</time>
      </trkpt>
      <trkpt lat="48.45005" lon="-4.47229">
        <ele>77.898</ele>
        <time>2011-04-07T07:23:26Z</time>
      </trkpt>
      <trkpt lat="48.44994" lon="-4.4719">
        <ele>76.998</ele>
        <time>2011-04-07T07:23:28Z</time>
      </trkpt>
      <trkpt lat="48.45023" lon="-4.47169">
        <ele>76.649</ele>
        <time>2011-04-07T07:23:33Z</time>
      </trkpt>
      <trkpt lat="48.45031" lon="-4.4718">
        <ele>77.655</ele>
        <time>2011-04-07T07:23:35Z</time>
      </trkpt>
      <trkpt lat="48.45034" lon="-4.47193">
        <ele>77.849</ele>
        <time>2011-04-07T07:23:37Z</time>
      </trkpt>
      <trkpt lat="48.4506" lon="-4.47208">
        <ele>78.284</ele>
        <time>2011-04-07T07:23:41Z</time>
      </trkpt>
      <trkpt lat="48.45193" lon="-4.47226">
        <ele>81.05</ele>
        <time>2011-04-07T07:24:04Z</time>
      </trkpt>
      <trkpt lat="48.45376" lon="-4.47252">
        <ele>82.918</ele>
        <time>2011-04-07T07:24:36Z</time>
      </trkpt>
      <trkpt lat="48.45497" lon="-4.47321">
        <ele>85.845</ele>
        <time>2011-04-07T07:24:58Z</time>
      </trkpt>
      <trkpt lat="48.45596" lon="-4.47426">
        <ele>82.65</ele>
        <time>2011-04-07T07:25:17Z</time>
      </trkpt>
      <trkpt lat="48.45712" lon="-4.47539">
        <ele>86.201</ele>
        <time>2011-04-07T07:25:40Z</time>
      </trkpt>
      <trkpt lat="48.45821" lon="-4.47581">
        <ele>86.762</ele>
        <time>2011-04-07T07:25:59Z</time>
      </trkpt>
      <trkpt lat="48.45952" lon="-4.47573">
        <ele>85.587</ele>
        <time>2011-04-07T07:26:20Z</time>
      </trkpt>
      <trkpt lat="48.46081" lon="-4.47556">
        <ele>83.959</ele>
        <time>2011-04-07T07:26:40Z</time>
      </trkpt>
      <trkpt lat="48.46208" lon="-4.47579">
        <ele>81.093</ele>
        <time>2011-04-07T07:26:59Z</time>
      </trkpt>
      <trkpt lat="48.46335" lon="-4.47612">
        <ele>81.415</ele>
        <time>2011-04-07T07:27:17Z</time>
      </trkpt>
      <trkpt lat="48.46482" lon="-4.4765">
        <ele>77.852</ele>
        <time>2011-04-07T07:27:37Z</time>
      </trkpt>
      <trkpt lat="48.46548" lon="-4.47667">
        <ele>74.471</ele>
        <time>2011-04-07T07:27:45Z</time>
      </trkpt>
      <trkpt lat="48.46556" lon="-4.47669">
        <ele>74.427</ele>
        <time>2011-04-07T07:27:46Z</time>
      </trkpt>
      <trkpt lat="48.46702" lon="-4.47711">
        <ele>73.756</ele>
        <time>2011-04-07T07:28:06Z</time>
      </trkpt>
      <trkpt lat="48.46776" lon="-4.47754">
        <ele>77.379</ele>
        <time>2011-04-07T07:28:18Z</time>
      </trkpt>
      <trkpt lat="48.46781" lon="-4.47759">
        <ele>77.3</ele>
        <time>2011-04-07T07:28:19Z</time>
      </trkpt>
      <trkpt lat="48.46897" lon="-4.47882">
        <ele>75.32</ele>
        <time>2011-04-07T07:28:40Z</time>
      </trkpt>
      <trkpt lat="48.47041" lon="-4.48005">
        <ele>75.472</ele>
        <time>2011-04-07T07:29:03Z</time>
      </trkpt>
      <trkpt lat="48.47249" lon="-4.48155">
        <ele>77.832</ele>
        <time>2011-04-07T07:29:36Z</time>
      </trkpt>
      <trkpt lat="48.47255" lon="-4.4816">
        <ele>77.738</ele>
        <time>2011-04-07T07:29:37Z</time>
      </trkpt>
      <trkpt lat="48.47417" lon="-4.48323">
        <ele>77.668</ele>
        <time>2011-04-07T07:30:05Z</time>
      </trkpt>
      <trkpt lat="48.47527" lon="-4.48431">
        <ele>74.458</ele>
        <time>2011-04-07T07:30:22Z</time>
      </trkpt>
      <trkpt lat="48.47557" lon="-4.48464">
        <ele>72.479</ele>
        <time>2011-04-07T07:30:26Z</time>
      </trkpt>
      <trkpt lat="48.47614" lon="-4.48536">
        <ele>69.941</ele>
        <time>2011-04-07T07:30:34Z</time>
      </trkpt>
      <trkpt lat="48.477" lon="-4.48668">
        <ele>66.813</ele>
        <time>2011-04-07T07:30:47Z</time>
      </trkpt>
      <trkpt lat="48.47764" lon="-4.48775">
        <ele>63.773</ele>
        <time>2011-04-07T07:30:57Z</time>
      </trkpt>
      <trkpt lat="48.4777" lon="-4.48785">
        <ele>63.559</ele>
        <time>2011-04-07T07:30:58Z</time>
      </trkpt>
      <trkpt lat="48.47862" lon="-4.48991">
        <ele>63.185</ele>
        <time>2011-04-07T07:31:17Z</time>
      </trkpt>
      <trkpt lat="48.47976" lon="-4.49305">
        <ele>62.295</ele>
        <time>2011-04-07T07:31:48Z</time>
      </trkpt>
      <trkpt lat="48.48077" lon="-4.49491">
        <ele>61.765</ele>
        <time>2011-04-07T07:32:10Z</time>
      </trkpt>
      <trkpt lat="48.48196" lon="-4.49653">
        <ele>64.374</ele>
        <time>2011-04-07T07:32:34Z</time>
      </trkpt>
      <trkpt lat="48.48308" lon="-4.4976">
        <ele>67.405</ele>
        <time>2011-04-07T07:32:55Z</time>
      </trkpt>
      <trkpt lat="48.48375" lon="-4.49817">
        <ele>70.491</ele>
        <time>2011-04-07T07:33:08Z</time>
      </trkpt>
      <trkpt lat="48.48452" lon="-4.49883">
        <ele>73.774</ele>
        <time>2011-04-07T07:33:23Z</time>
      </trkpt>
      <trkpt lat="48.48592" lon="-4.49997">
        <ele>70.688</ele>
        <time>2011-04-07T07:33:46Z</time>
      </trkpt>
      <trkpt lat="48.48752" lon="-4.50059">
        <ele>68</ele>
        <time>2011-04-07T07:34:08Z</time>
      </trkpt>
      <trkpt lat="48.48833" lon="-4.50075">
        <ele>64.995</ele>
        <time>2011-04-07T07:34:20Z</time>
      </trkpt>
      <trkpt lat="48.48919" lon="-4.50096">
        <ele>61.297</ele>
        <time>2011-04-07T07:34:31Z</time>
      </trkpt>
      <trkpt lat="48.4903" lon="-4.5011">
        <ele>57.66</ele>
        <time>2011-04-07T07:34:41Z</time>
      </trkpt>
      <trkpt lat="48.49049" lon="-4.50106">
        <ele>57.465</ele>
        <time>2011-04-07T07:34:43Z</time>
      </trkpt>
      <trkpt lat="48.49082" lon="-4.501">
        <ele>57.2</ele>
        <time>2011-04-07T07:34:47Z</time>
      </trkpt>
      <trkpt lat="48.49121" lon="-4.50075">
        <ele>56.305</ele>
        <time>2011-04-07T07:34:53Z</time>
      </trkpt>
      <trkpt lat="48.49121" lon="-4.50075">
        <ele>56.254</ele>
        <time>2011-04-07T07:34:54Z</time>
      </trkpt>
      <trkpt lat="48.49119" lon="-4.50111">
        <ele>56.481</ele>
        <time>2011-04-07T07:34:56Z</time>
      </trkpt>
      <trkpt lat="48.49153" lon="-4.50151">
        <ele>55.877</ele>
        <time>2011-04-07T07:35:01Z</time>
      </trkpt>
      <trkpt lat="48.49343" lon="-4.50192">
        <ele>57.692</ele>
        <time>2011-04-07T07:35:28Z</time>
      </trkpt>
      <trkpt lat="48.49464" lon="-4.50218">
        <ele>59.277</ele>
        <time>2011-04-07T07:35:48Z</time>
      </trkpt>
      <trkpt lat="48.49601" lon="-4.50259">
        <ele>62.328</ele>
        <time>2011-04-07T07:36:13Z</time>
      </trkpt>
      <trkpt lat="48.49692" lon="-4.5033">
        <ele>58.751</ele>
        <time>2011-04-07T07:36:30Z</time>
      </trkpt>
      <trkpt lat="48.49753" lon="-4.50383">
        <ele>55.6</ele>
        <time>2011-04-07T07:36:39Z</time>
      </trkpt>
      <trkpt lat="48.49855" lon="-4.50474">
        <ele>54.984</ele>
        <time>2011-04-07T07:36:56Z</time>
      </trkpt>
      <trkpt lat="48.49897" lon="-4.50536">
        <ele>55.473</ele>
        <time>2011-04-07T07:37:06Z</time>
      </trkpt>
      <trkpt lat="48.49895" lon="-4.50572">
        <ele>54.936</ele>
        <time>2011-04-07T07:37:11Z</time>
      </trkpt>
      <trkpt lat="48.49877" lon="-4.50613">
        <ele>54.869</ele>
        <time>2011-04-07T07:37:17Z</time>
      </trkpt>
      <trkpt lat="48.49857" lon="-4.50656">
        <ele>56.139</ele>
        <time>2011-04-07T07:37:24Z</time>
      </trkpt>
      <trkpt lat="48.49813" lon="-4.50736">
        <ele>59.008</ele>
        <time>2011-04-07T07:37:39Z</time>
      </trkpt>
      <trkpt lat="48.49778" lon="-4.50812">
        <ele>60.478</ele>
        <time>2011-04-07T07:37:53Z</time>
      </trkpt>
      <trkpt lat="48.49736" lon="-4.50915">
        <ele>59.155</ele>
        <time>2011-04-07T07:38:08Z</time>
      </trkpt>
      <trkpt lat="48.49725" lon="-4.50932">
        <ele>59.651</ele>
        <time>2011-04-07T07:38:11Z</time>
      </trkpt>
      <trkpt lat="48.49708" lon="-4.50942">
        <ele>60.345</ele>
        <time>2011-04-07T07:38:15Z</time>
      </trkpt>
      <trkpt lat="48.49665" lon="-4.50958">
        <ele>62.891</ele>
        <time>2011-04-07T07:38:25Z</time>
      </trkpt>
      <trkpt lat="48.49611" lon="-4.50978">
        <ele>65.96</ele>
        <time>2011-04-07T07:38:38Z</time>
      </trkpt>
      <trkpt lat="48.49557" lon="-4.50995">
        <ele>69.255</ele>
        <time>2011-04-07T07:38:50Z</time>
      </trkpt>
      <trkpt lat="48.49463" lon="-4.50985">
        <ele>68.762</ele>
        <time>2011-04-07T07:39:07Z</time>
      </trkpt>
      <trkpt lat="48.49445" lon="-4.50987">
        <ele>68.609</ele>
        <time>2011-04-07T07:39:10Z</time>
      </trkpt>
      <trkpt lat="48.49346" lon="-4.51029">
        <ele>71.828</ele>
        <time>2011-04-07T07:39:28Z</time>
      </trkpt>
      <trkpt lat="48.49245" lon="-4.51075">
        <ele>73.009</ele>
        <time>2011-04-07T07:39:46Z</time>
      </trkpt>
      <trkpt lat="48.49116" lon="-4.51135">
        <ele>70.937</ele>
        <time>2011-04-07T07:40:09Z</time>
      </trkpt>
      <trkpt lat="48.49022" lon="-4.51211">
        <ele>70.946</ele>
        <time>2011-04-07T07:40:25Z</time>
      </trkpt>
      <trkpt lat="48.48908" lon="-4.5128">
        <ele>72.18</ele>
        <time>2011-04-07T07:40:47Z</time>
      </trkpt>
      <trkpt lat="48.4877" lon="-4.51364">
        <ele>75.594</ele>
        <time>2011-04-07T07:41:15Z</time>
      </trkpt>
      <trkpt lat="48.48741" lon="-4.51381">
        <ele>76.049</ele>
        <time>2011-04-07T07:41:21Z</time>
      </trkpt>
      <trkpt lat="48.48719" lon="-4.51413">
        <ele>77.509</ele>
        <time>2011-04-07T07:41:27Z</time>
      </trkpt>
      <trkpt lat="48.48643" lon="-4.51583">
        <ele>76.884</ele>
        <time>2011-04-07T07:41:51Z</time>
      </trkpt>
      <trkpt lat="48.4863" lon="-4.51612">
        <ele>77.108</ele>
        <time>2011-04-07T07:41:55Z</time>
      </trkpt>
      <trkpt lat="48.48564" lon="-4.51753">
        <ele>77.054</ele>
        <time>2011-04-07T07:42:15Z</time>
      </trkpt>
      <trkpt lat="48.48487" lon="-4.51887">
        <ele>76.253</ele>
        <time>2011-04-07T07:42:35Z</time>
      </trkpt>
      <trkpt lat="48.48398" lon="-4.51959">
        <ele>76.46</ele>
        <time>2011-04-07T07:42:53Z</time>
      </trkpt>
      <trkpt lat="48.48277" lon="-4.52031">
        <ele>75.4</ele>
        <time>2011-04-07T07:43:15Z</time>
      </trkpt>
      <trkpt lat="48.48231" lon="-4.52059">
        <ele>74.9</ele>
        <time>2011-04-07T07:43:23Z</time>
      </trkpt>
      <trkpt lat="48.48215" lon="-4.52077">
        <ele>74.237</ele>
        <time>2011-04-07T07:43:26Z</time>
      </trkpt>
      <trkpt lat="48.48154" lon="-4.52202">
        <ele>72.173</ele>
        <time>2011-04-07T07:43:41Z</time>
      </trkpt>
      <trkpt lat="48.48147" lon="-4.52219">
        <ele>71.926</ele>
        <time>2011-04-07T07:43:43Z</time>
      </trkpt>
      <trkpt lat="48.48116" lon="-4.52248">
        <ele>73.384</ele>
        <time>2011-04-07T07:43:49Z</time>
      </trkpt>
      <trkpt lat="48.48007" lon="-4.52285">
        <ele>71.901</ele>
        <time>2011-04-07T07:44:06Z</time>
      </trkpt>
      <trkpt lat="48.47954" lon="-4.52368">
        <ele>72.549</ele>
        <time>2011-04-07T07:44:17Z</time>
      </trkpt>
      <trkpt lat="48.47915" lon="-4.52461">
        <ele>75.751</ele>
        <time>2011-04-07T07:44:29Z</time>
      </trkpt>
      <trkpt lat="48.47846" lon="-4.52598">
        <ele>77.599</ele>
        <time>2011-04-07T07:44:49Z</time>
      </trkpt>
      <trkpt lat="48.47769" lon="-4.5274">
        <ele>77.286</ele>
        <time>2011-04-07T07:45:11Z</time>
      </trkpt>
      <trkpt lat="48.47752" lon="-4.52787">
        <ele>77.019</ele>
        <time>2011-04-07T07:45:21Z</time>
      </trkpt>
      <trkpt lat="48.47707" lon="-4.52896">
        <ele>75.797</ele>
        <time>2011-04-07T07:45:35Z</time>
      </trkpt>
      <trkpt lat="48.47648" lon="-4.53099">
        <ele>77.464</ele>
        <time>2011-04-07T07:46:00Z</time>
      </trkpt>
      <trkpt lat="48.47592" lon="-4.53237">
        <ele>79.823</ele>
        <time>2011-04-07T07:46:20Z</time>
      </trkpt>
      <trkpt lat="48.47531" lon="-4.53368">
        <ele>82.506</ele>
        <time>2011-04-07T07:46:40Z</time>
      </trkpt>
      <trkpt lat="48.47525" lon="-4.53382">
        <ele>82.33</ele>
        <time>2011-04-07T07:46:42Z</time>
      </trkpt>
      <trkpt lat="48.47473" lon="-4.53501">
        <ele>80.618</ele>
        <time>2011-04-07T07:46:58Z</time>
      </trkpt>
      <trkpt lat="48.47434" lon="-4.53596">
        <ele>79.557</ele>
        <time>2011-04-07T07:47:09Z</time>
      </trkpt>
      <trkpt lat="48.47437" lon="-4.53645">
        <ele>79.497</ele>
        <time>2011-04-07T07:47:14Z</time>
      </trkpt>
      <trkpt lat="48.47447" lon="-4.53697">
        <ele>80.374</ele>
        <time>2011-04-07T07:47:21Z</time>
      </trkpt>
      <trkpt lat="48.47442" lon="-4.53759">
        <ele>80.329</ele>
        <time>2011-04-07T07:47:26Z</time>
      </trkpt>
      <trkpt lat="48.47379" lon="-4.53961">
        <ele>79.379</ele>
        <time>2011-04-07T07:47:49Z</time>
      </trkpt>
      <trkpt lat="48.47292" lon="-4.54141">
        <ele>81.159</ele>
        <time>2011-04-07T07:48:13Z</time>
      </trkpt>
      <trkpt lat="48.47273" lon="-4.54269">
        <ele>82.003</ele>
        <time>2011-04-07T07:48:28Z</time>
      </trkpt>
      <trkpt lat="48.4724" lon="-4.5442">
        <ele>83.348</ele>
        <time>2011-04-07T07:48:46Z</time>
      </trkpt>
      <trkpt lat="48.47172" lon="-4.54533">
        <ele>83.94</ele>
        <time>2011-04-07T07:49:04Z</time>
      </trkpt>
      <trkpt lat="48.47138" lon="-4.54583">
        <ele>83.377</ele>
        <time>2011-04-07T07:49:12Z</time>
      </trkpt>
      <trkpt lat="48.4712" lon="-4.5463">
        <ele>83.874</ele>
        <time>2011-04-07T07:49:18Z</time>
      </trkpt>
      <trkpt lat="48.47093" lon="-4.54824">
        <ele>84.227</ele>
        <time>2011-04-07T07:49:40Z</time>
      </trkpt>
      <trkpt lat="48.47097" lon="-4.55035">
        <ele>84.123</ele>
        <time>2011-04-07T07:50:03Z</time>
      </trkpt>
      <trkpt lat="48.47075" lon="-4.55195">
        <ele>81.075</ele>
        <time>2011-04-07T07:50:19Z</time>
      </trkpt>
      <trkpt lat="48.47055" lon="-4.55325">
        <ele>77.99</ele>
        <time>2011-04-07T07:50:31Z</time>
      </trkpt>
      <trkpt lat="48.47019" lon="-4.55527">
        <ele>78.232</ele>
        <time>2011-04-07T07:50:50Z</time>
      </trkpt>
      <trkpt lat="48.47005" lon="-4.55674">
        <ele>75.954</ele>
        <time>2011-04-07T07:51:05Z</time>
      </trkpt>
      <trkpt lat="48.47005" lon="-4.5573">
        <ele>73.944</ele>
        <time>2011-04-07T07:51:10Z</time>
      </trkpt>
      <trkpt lat="48.46998" lon="-4.55803">
        <ele>70.643</ele>
        <time>2011-04-07T07:51:16Z</time>
      </trkpt>
      <trkpt lat="48.4698" lon="-4.55878">
        <ele>67.425</ele>
        <time>2011-04-07T07:51:22Z</time>
      </trkpt>
      <trkpt lat="48.46934" lon="-4.56048">
        <ele>69.656</ele>
        <time>2011-04-07T07:51:38Z</time>
      </trkpt>
      <trkpt lat="48.46904" lon="-4.56159">
        <ele>72.69</ele>
        <time>2011-04-07T07:51:52Z</time>
      </trkpt>
      <trkpt lat="48.46876" lon="-4.56253">
        <ele>75.976</ele>
        <time>2011-04-07T07:52:05Z</time>
      </trkpt>
      <trkpt lat="48.46847" lon="-4.56318">
        <ele>78.051</ele>
        <time>2011-04-07T07:52:15Z</time>
      </trkpt>
      <trkpt lat="48.46777" lon="-4.56408">
        <ele>78.946</ele>
        <time>2011-04-07T07:52:32Z</time>
      </trkpt>
      <trkpt lat="48.46764" lon="-4.56433">
        <ele>79.281</ele>
        <time>2011-04-07T07:52:36Z</time>
      </trkpt>
      <trkpt lat="48.46745" lon="-4.56451">
        <ele>79.137</ele>
        <time>2011-04-07T07:52:40Z</time>
      </trkpt>
      <trkpt lat="48.46733" lon="-4.56464">
        <ele>79.331</ele>
        <time>2011-04-07T07:52:43Z</time>
      </trkpt>
      <trkpt lat="48.46704" lon="-4.56514">
        <ele>79.729</ele>
        <time>2011-04-07T07:52:50Z</time>
      </trkpt>
      <trkpt lat="48.46693" lon="-4.56565">
        <ele>80.402</ele>
        <time>2011-04-07T07:52:57Z</time>
      </trkpt>
      <trkpt lat="48.46651" lon="-4.56637">
        <ele>81.089</ele>
        <time>2011-04-07T07:53:08Z</time>
      </trkpt>
      <trkpt lat="48.46588" lon="-4.56791">
        <ele>82.836</ele>
        <time>2011-04-07T07:53:29Z</time>
      </trkpt>
      <trkpt lat="48.46537" lon="-4.56905">
        <ele>84.246</ele>
        <time>2011-04-07T07:53:45Z</time>
      </trkpt>
      <trkpt lat="48.46525" lon="-4.56928">
        <ele>84.522</ele>
        <time>2011-04-07T07:53:49Z</time>
      </trkpt>
      <trkpt lat="48.46504" lon="-4.57054">
        <ele>84.806</ele>
        <time>2011-04-07T07:54:04Z</time>
      </trkpt>
      <trkpt lat="48.46484" lon="-4.57178">
        <ele>84.477</ele>
        <time>2011-04-07T07:54:17Z</time>
      </trkpt>
      <trkpt lat="48.4646" lon="-4.57227">
        <ele>83.131</ele>
        <time>2011-04-07T07:54:23Z</time>
      </trkpt>
      <trkpt lat="48.46367" lon="-4.57398">
        <ele>81.241</ele>
        <time>2011-04-07T07:54:43Z</time>
      </trkpt>
      <trkpt lat="48.463" lon="-4.57556">
        <ele>80.893</ele>
        <time>2011-04-07T07:55:00Z</time>
      </trkpt>
      <trkpt lat="48.46199" lon="-4.57802">
        <ele>82.97</ele>
        <time>2011-04-07T07:55:28Z</time>
      </trkpt>
      <trkpt lat="48.46188" lon="-4.57828">
        <ele>82.893</ele>
        <time>2011-04-07T07:55:31Z</time>
      </trkpt>
      <trkpt lat="48.46183" lon="-4.57889">
        <ele>82.194</ele>
        <time>2011-04-07T07:55:37Z</time>
      </trkpt>
      <trkpt lat="48.46152" lon="-4.58078">
        <ele>83.639</ele>
        <time>2011-04-07T07:55:58Z</time>
      </trkpt>
      <trkpt lat="48.4615" lon="-4.58218">
        <ele>86.146</ele>
        <time>2011-04-07T07:56:15Z</time>
      </trkpt>
      <trkpt lat="48.46172" lon="-4.58266">
        <ele>86.105</ele>
        <time>2011-04-07T07:56:22Z</time>
      </trkpt>
      <trkpt lat="48.46267" lon="-4.58396">
        <ele>83.045</ele>
        <time>2011-04-07T07:56:42Z</time>
      </trkpt>
      <trkpt lat="48.46368" lon="-4.58554">
        <ele>82.842</ele>
        <time>2011-04-07T07:57:04Z</time>
      </trkpt>
      <trkpt lat="48.46502" lon="-4.58778">
        <ele>83.338</ele>
        <time>2011-04-07T07:57:37Z</time>
      </trkpt>
      <trkpt lat="48.46623" lon="-4.58979">
        <ele>81.866</ele>
        <time>2011-04-07T07:58:05Z</time>
      </trkpt>
      <trkpt lat="48.46719" lon="-4.59144">
        <ele>84.188</ele>
        <time>2011-04-07T07:58:30Z</time>
      </trkpt>
      <trkpt lat="48.46811" lon="-4.59319">
        <ele>81.662</ele>
        <time>2011-04-07T07:58:53Z</time>
      </trkpt>
      <trkpt lat="48.46931" lon="-4.59584">
        <ele>82.395</ele>
        <time>2011-04-07T07:59:27Z</time>
      </trkpt>
      <trkpt lat="48.46996" lon="-4.59756">
        <ele>84.192</ele>
        <time>2011-04-07T07:59:50Z</time>
      </trkpt>
      <trkpt lat="48.47023" lon="-4.59959">
        <ele>84.945</ele>
        <time>2011-04-07T08:00:14Z</time>
      </trkpt>
      <trkpt lat="48.47049" lon="-4.60166">
        <ele>85.932</ele>
        <time>2011-04-07T08:00:37Z</time>
      </trkpt>
      <trkpt lat="48.47064" lon="-4.60263">
        <ele>87.42</ele>
        <time>2011-04-07T08:00:48Z</time>
      </trkpt>
      <trkpt lat="48.47065" lon="-4.60411">
        <ele>89.96</ele>
        <time>2011-04-07T08:01:04Z</time>
      </trkpt>
      <trkpt lat="48.47084" lon="-4.60558">
        <ele>88.463</ele>
        <time>2011-04-07T08:01:19Z</time>
      </trkpt>
      <trkpt lat="48.47117" lon="-4.60649">
        <ele>86.183</ele>
        <time>2011-04-07T08:01:29Z</time>
      </trkpt>
      <trkpt lat="48.47194" lon="-4.60843">
        <ele>83.672</ele>
        <time>2011-04-07T08:01:49Z</time>
      </trkpt>
      <trkpt lat="48.47219" lon="-4.6099">
        <ele>86.303</ele>
        <time>2011-04-07T08:02:04Z</time>
      </trkpt>
      <trkpt lat="48.47252" lon="-4.61282">
        <ele>87.395</ele>
        <time>2011-04-07T08:02:34Z</time>
      </trkpt>
      <trkpt lat="48.47259" lon="-4.61444">
        <ele>84.348</ele>
        <time>2011-04-07T08:02:49Z</time>
      </trkpt>
      <trkpt lat="48.47216" lon="-4.61544">
        <ele>84.352</ele>
        <time>2011-04-07T08:03:00Z</time>
      </trkpt>
      <trkpt lat="48.47118" lon="-4.61699">
        <ele>87.384</ele>
        <time>2011-04-07T08:03:22Z</time>
      </trkpt>
      <trkpt lat="48.47087" lon="-4.61815">
        <ele>88.855</ele>
        <time>2011-04-07T08:03:36Z</time>
      </trkpt>
      <trkpt lat="48.47095" lon="-4.61965">
        <ele>90.306</ele>
        <time>2011-04-07T08:03:53Z</time>
      </trkpt>
      <trkpt lat="48.47105" lon="-4.62155">
        <ele>90.366</ele>
        <time>2011-04-07T08:04:14Z</time>
      </trkpt>
      <trkpt lat="48.4713" lon="-4.62345">
        <ele>90.889</ele>
        <time>2011-04-07T08:04:35Z</time>
      </trkpt>
      <trkpt lat="48.47155" lon="-4.62503">
        <ele>93.936</ele>
        <time>2011-04-07T08:04:54Z</time>
      </trkpt>
      <trkpt lat="48.47172" lon="-4.62649">
        <ele>94.68</ele>
        <time>2011-04-07T08:05:11Z</time>
      </trkpt>
      <trkpt lat="48.47163" lon="-4.62695">
        <ele>93.863</ele>
        <time>2011-04-07T08:05:16Z</time>
      </trkpt>
      <trkpt lat="48.47111" lon="-4.62857">
        <ele>93.65</ele>
        <time>2011-04-07T08:05:35Z</time>
      </trkpt>
      <trkpt lat="48.47104" lon="-4.63019">
        <ele>93.157</ele>
        <time>2011-04-07T08:05:52Z</time>
      </trkpt>
      <trkpt lat="48.47097" lon="-4.63188">
        <ele>89.877</ele>
        <time>2011-04-07T08:06:09Z</time>
      </trkpt>
      <trkpt lat="48.47096" lon="-4.63199">
        <ele>89.728</ele>
        <time>2011-04-07T08:06:10Z</time>
      </trkpt>
      <trkpt lat="48.47092" lon="-4.63286">
        <ele>88.635</ele>
        <time>2011-04-07T08:06:18Z</time>
      </trkpt>
      <trkpt lat="48.47104" lon="-4.63451">
        <ele>86.955</ele>
        <time>2011-04-07T08:06:34Z</time>
      </trkpt>
      <trkpt lat="48.47122" lon="-4.6361">
        <ele>87.906</ele>
        <time>2011-04-07T08:06:50Z</time>
      </trkpt>
      <trkpt lat="48.4717" lon="-4.63671">
        <ele>86.599</ele>
        <time>2011-04-07T08:07:00Z</time>
      </trkpt>
      <trkpt lat="48.47265" lon="-4.63727">
        <ele>84.701</ele>
        <time>2011-04-07T08:07:14Z</time>
      </trkpt>
      <trkpt lat="48.47302" lon="-4.63762">
        <ele>85.274</ele>
        <time>2011-04-07T08:07:21Z</time>
      </trkpt>
      <trkpt lat="48.4732" lon="-4.63801">
        <ele>86.636</ele>
        <time>2011-04-07T08:07:34Z</time>
      </trkpt>
    </trkseg>
  </trk>
  <trk>
    <name><![CDATA[ACTIVE LOG100756]]></name>
    <trkseg>
      <trkpt lat="48.4732" lon="-4.63801">
        <ele>86.403</ele>
        <time>2011-04-07T08:07:56Z</time>
      </trkpt>
      <trkpt lat="48.4732" lon="-4.63801">
        <ele>81.119</ele>
        <time>2011-04-07T08:09:15Z</time>
      </trkpt>
      <trkpt lat="48.4732" lon="-4.63801">
        <ele>79.563</ele>
        <time>2011-04-07T08:09:20Z</time>
      </trkpt>
      <trkpt lat="48.4732" lon="-4.63801">
        <ele>78.059</ele>
        <time>2011-04-07T08:09:41Z</time>
      </trkpt>
    </trkseg>
  </trk>
  <trk>
    <name><![CDATA[ACTIVE LOG100950]]></name>
    <trkseg>
      <trkpt lat="48.4732" lon="-4.63801">
        <ele>78.268</ele>
        <time>2011-04-07T08:09:50Z</time>
      </trkpt>
      <trkpt lat="48.47324" lon="-4.63803">
        <ele>77.584</ele>
        <time>2011-04-07T08:09:51Z</time>
      </trkpt>
      <trkpt lat="48.47651" lon="-4.64014">
        <ele>77.029</ele>
        <time>2011-04-07T08:09:59Z</time>
      </trkpt>
      <trkpt lat="48.47692" lon="-4.64016">
        <ele>75.372</ele>
        <time>2011-04-07T08:10:04Z</time>
      </trkpt>
      <trkpt lat="48.47775" lon="-4.64024">
        <ele>75.506</ele>
        <time>2011-04-07T08:10:15Z</time>
      </trkpt>
      <trkpt lat="48.47879" lon="-4.64094">
        <ele>76.355</ele>
        <time>2011-04-07T08:10:30Z</time>
      </trkpt>
      <trkpt lat="48.47966" lon="-4.64151">
        <ele>75.49</ele>
        <time>2011-04-07T08:10:44Z</time>
      </trkpt>
      <trkpt lat="48.48068" lon="-4.64208">
        <ele>72.083</ele>
        <time>2011-04-07T08:10:57Z</time>
      </trkpt>
      <trkpt lat="48.48303" lon="-4.64342">
        <ele>71.887</ele>
        <time>2011-04-07T08:11:28Z</time>
      </trkpt>
      <trkpt lat="48.48395" lon="-4.64395">
        <ele>75.161</ele>
        <time>2011-04-07T08:11:41Z</time>
      </trkpt>
      <trkpt lat="48.48546" lon="-4.64466">
        <ele>76.617</ele>
        <time>2011-04-07T08:12:03Z</time>
      </trkpt>
      <trkpt lat="48.48733" lon="-4.64505">
        <ele>73.84</ele>
        <time>2011-04-07T08:12:27Z</time>
      </trkpt>
      <trkpt lat="48.48901" lon="-4.64539">
        <ele>72.415</ele>
        <time>2011-04-07T08:12:47Z</time>
      </trkpt>
      <trkpt lat="48.49086" lon="-4.64577">
        <ele>71.707</ele>
        <time>2011-04-07T08:13:11Z</time>
      </trkpt>
      <trkpt lat="48.49309" lon="-4.64652">
        <ele>68.747</ele>
        <time>2011-04-07T08:13:40Z</time>
      </trkpt>
      <trkpt lat="48.49459" lon="-4.64736">
        <ele>68.09</ele>
        <time>2011-04-07T08:13:59Z</time>
      </trkpt>
      <trkpt lat="48.49579" lon="-4.64837">
        <ele>68.222</ele>
        <time>2011-04-07T08:14:16Z</time>
      </trkpt>
      <trkpt lat="48.49694" lon="-4.64886">
        <ele>66.457</ele>
        <time>2011-04-07T08:14:30Z</time>
      </trkpt>
      <trkpt lat="48.4981" lon="-4.6489">
        <ele>63.294</ele>
        <time>2011-04-07T08:14:43Z</time>
      </trkpt>
      <trkpt lat="48.49957" lon="-4.64924">
        <ele>62.133</ele>
        <time>2011-04-07T08:15:00Z</time>
      </trkpt>
      <trkpt lat="48.50095" lon="-4.65001">
        <ele>60.18</ele>
        <time>2011-04-07T08:15:17Z</time>
      </trkpt>
      <trkpt lat="48.50159" lon="-4.65099">
        <ele>59.81</ele>
        <time>2011-04-07T08:15:28Z</time>
      </trkpt>
      <trkpt lat="48.50266" lon="-4.65299">
        <ele>56.769</ele>
        <time>2011-04-07T08:15:46Z</time>
      </trkpt>
      <trkpt lat="48.50345" lon="-4.65373">
        <ele>54.709</ele>
        <time>2011-04-07T08:15:56Z</time>
      </trkpt>
      <trkpt lat="48.50443" lon="-4.65385">
        <ele>55.524</ele>
        <time>2011-04-07T08:16:07Z</time>
      </trkpt>
      <trkpt lat="48.50495" lon="-4.65382">
        <ele>57.869</ele>
        <time>2011-04-07T08:16:14Z</time>
      </trkpt>
      <trkpt lat="48.50544" lon="-4.6538">
        <ele>61.032</ele>
        <time>2011-04-07T08:16:22Z</time>
      </trkpt>
      <trkpt lat="48.50607" lon="-4.65376">
        <ele>64.225</ele>
        <time>2011-04-07T08:16:33Z</time>
      </trkpt>
      <trkpt lat="48.5066" lon="-4.65372">
        <ele>67.248</ele>
        <time>2011-04-07T08:16:42Z</time>
      </trkpt>
      <trkpt lat="48.50725" lon="-4.65368">
        <ele>70.332</ele>
        <time>2011-04-07T08:16:53Z</time>
      </trkpt>
      <trkpt lat="48.50866" lon="-4.65365">
        <ele>72.209</ele>
        <time>2011-04-07T08:17:16Z</time>
      </trkpt>
      <trkpt lat="48.50965" lon="-4.65399">
        <ele>69.075</ele>
        <time>2011-04-07T08:17:30Z</time>
      </trkpt>
      <trkpt lat="48.51078" lon="-4.65482">
        <ele>65.955</ele>
        <time>2011-04-07T08:17:45Z</time>
      </trkpt>
      <trkpt lat="48.51125" lon="-4.6552">
        <ele>62.316</ele>
        <time>2011-04-07T08:17:53Z</time>
      </trkpt>
      <trkpt lat="48.51156" lon="-4.65545">
        <ele>61.281</ele>
        <time>2011-04-07T08:17:55Z</time>
      </trkpt>
      <trkpt lat="48.51299" lon="-4.65669">
        <ele>61.115</ele>
        <time>2011-04-07T08:18:14Z</time>
      </trkpt>
      <trkpt lat="48.51415" lon="-4.65808">
        <ele>62.625</ele>
        <time>2011-04-07T08:18:33Z</time>
      </trkpt>
      <trkpt lat="48.51554" lon="-4.66005">
        <ele>60.392</ele>
        <time>2011-04-07T08:18:56Z</time>
      </trkpt>
      <trkpt lat="48.51653" lon="-4.6607">
        <ele>57.452</ele>
        <time>2011-04-07T08:19:08Z</time>
      </trkpt>
      <trkpt lat="48.51751" lon="-4.66114">
        <ele>54.267</ele>
        <time>2011-04-07T08:19:19Z</time>
      </trkpt>
      <trkpt lat="48.51796" lon="-4.66135">
        <ele>52.836</ele>
        <time>2011-04-07T08:19:24Z</time>
      </trkpt>
      <trkpt lat="48.51978" lon="-4.66209">
        <ele>51.944</ele>
        <time>2011-04-07T08:19:45Z</time>
      </trkpt>
      <trkpt lat="48.52207" lon="-4.66305">
        <ele>54.399</ele>
        <time>2011-04-07T08:20:14Z</time>
      </trkpt>
      <trkpt lat="48.52228" lon="-4.66311">
        <ele>55.715</ele>
        <time>2011-04-07T08:20:17Z</time>
      </trkpt>
      <trkpt lat="48.52297" lon="-4.66328">
        <ele>59.005</ele>
        <time>2011-04-07T08:20:27Z</time>
      </trkpt>
      <trkpt lat="48.5231" lon="-4.66329">
        <ele>59.878</ele>
        <time>2011-04-07T08:20:29Z</time>
      </trkpt>
      <trkpt lat="48.52394" lon="-4.66317">
        <ele>61.491</ele>
        <time>2011-04-07T08:20:42Z</time>
      </trkpt>
      <trkpt lat="48.52549" lon="-4.6626">
        <ele>59.876</ele>
        <time>2011-04-07T08:21:05Z</time>
      </trkpt>
      <trkpt lat="48.52734" lon="-4.66159">
        <ele>58.873</ele>
        <time>2011-04-07T08:21:32Z</time>
      </trkpt>
      <trkpt lat="48.52861" lon="-4.66109">
        <ele>60.4</ele>
        <time>2011-04-07T08:21:50Z</time>
      </trkpt>
      <trkpt lat="48.52863" lon="-4.66108">
        <ele>61.073</ele>
        <time>2011-04-07T08:21:54Z</time>
      </trkpt>
      <trkpt lat="48.52893" lon="-4.66109">
        <ele>60.765</ele>
        <time>2011-04-07T08:22:00Z</time>
      </trkpt>
      <trkpt lat="48.5287" lon="-4.66126">
        <ele>60.686</ele>
        <time>2011-04-07T08:22:05Z</time>
      </trkpt>
      <trkpt lat="48.52865" lon="-4.66117">
        <ele>61.004</ele>
        <time>2011-04-07T08:22:07Z</time>
      </trkpt>
      <trkpt lat="48.52773" lon="-4.66141">
        <ele>60.237</ele>
        <time>2011-04-07T08:22:22Z</time>
      </trkpt>
      <trkpt lat="48.52669" lon="-4.66194">
        <ele>59.83</ele>
        <time>2011-04-07T08:22:39Z</time>
      </trkpt>
      <trkpt lat="48.52531" lon="-4.66268">
        <ele>61.179</ele>
        <time>2011-04-07T08:23:01Z</time>
      </trkpt>
      <trkpt lat="48.52381" lon="-4.66322">
        <ele>62.104</ele>
        <time>2011-04-07T08:23:25Z</time>
      </trkpt>
      <trkpt lat="48.52349" lon="-4.66331">
        <ele>63.161</ele>
        <time>2011-04-07T08:23:30Z</time>
      </trkpt>
      <trkpt lat="48.52322" lon="-4.66329">
        <ele>61.897</ele>
        <time>2011-04-07T08:23:34Z</time>
      </trkpt>
      <trkpt lat="48.52277" lon="-4.66326">
        <ele>58.894</ele>
        <time>2011-04-07T08:23:40Z</time>
      </trkpt>
      <trkpt lat="48.52261" lon="-4.66321">
        <ele>58.008</ele>
        <time>2011-04-07T08:23:42Z</time>
      </trkpt>
      <trkpt lat="48.52218" lon="-4.66309">
        <ele>55.423</ele>
        <time>2011-04-07T08:23:47Z</time>
      </trkpt>
      <trkpt lat="48.5208" lon="-4.66253">
        <ele>53.823</ele>
        <time>2011-04-07T08:24:04Z</time>
      </trkpt>
      <trkpt lat="48.51876" lon="-4.66166">
        <ele>54.938</ele>
        <time>2011-04-07T08:24:33Z</time>
      </trkpt>
      <trkpt lat="48.51741" lon="-4.6611">
        <ele>57.73</ele>
        <time>2011-04-07T08:24:55Z</time>
      </trkpt>
      <trkpt lat="48.51718" lon="-4.66099">
        <ele>59.069</ele>
        <time>2011-04-07T08:24:59Z</time>
      </trkpt>
      <trkpt lat="48.51599" lon="-4.66043">
        <ele>62.137</ele>
        <time>2011-04-07T08:25:21Z</time>
      </trkpt>
      <trkpt lat="48.51516" lon="-4.65952">
        <ele>63.599</ele>
        <time>2011-04-07T08:25:39Z</time>
      </trkpt>
      <trkpt lat="48.51402" lon="-4.65791">
        <ele>64.141</ele>
        <time>2011-04-07T08:26:04Z</time>
      </trkpt>
      <trkpt lat="48.51292" lon="-4.65662">
        <ele>62.133</ele>
        <time>2011-04-07T08:26:24Z</time>
      </trkpt>
      <trkpt lat="48.5114" lon="-4.65532">
        <ele>65.062</ele>
        <time>2011-04-07T08:26:48Z</time>
      </trkpt>
      <trkpt lat="48.51125" lon="-4.6552">
        <ele>66.371</ele>
        <time>2011-04-07T08:26:51Z</time>
      </trkpt>
      <trkpt lat="48.51035" lon="-4.65448">
        <ele>69.45</ele>
        <time>2011-04-07T08:27:08Z</time>
      </trkpt>
      <trkpt lat="48.50909" lon="-4.6537">
        <ele>71.825</ele>
        <time>2011-04-07T08:27:30Z</time>
      </trkpt>
      <trkpt lat="48.50777" lon="-4.65365">
        <ele>72.007</ele>
        <time>2011-04-07T08:27:51Z</time>
      </trkpt>
      <trkpt lat="48.50682" lon="-4.65371">
        <ele>68.546</ele>
        <time>2011-04-07T08:28:04Z</time>
      </trkpt>
      <trkpt lat="48.50674" lon="-4.65372">
        <ele>68.289</ele>
        <time>2011-04-07T08:28:05Z</time>
      </trkpt>
      <trkpt lat="48.50629" lon="-4.65374">
        <ele>64.435</ele>
        <time>2011-04-07T08:28:10Z</time>
      </trkpt>
      <trkpt lat="48.50581" lon="-4.65377">
        <ele>61.617</ele>
        <time>2011-04-07T08:28:15Z</time>
      </trkpt>
      <trkpt lat="48.50495" lon="-4.65382">
        <ele>58.248</ele>
        <time>2011-04-07T08:28:24Z</time>
      </trkpt>
      <trkpt lat="48.50347" lon="-4.65374">
        <ele>57.541</ele>
        <time>2011-04-07T08:28:41Z</time>
      </trkpt>
      <trkpt lat="48.50272" lon="-4.65307">
        <ele>59.932</ele>
        <time>2011-04-07T08:28:54Z</time>
      </trkpt>
      <trkpt lat="48.50174" lon="-4.65128">
        <ele>62.487</ele>
        <time>2011-04-07T08:29:18Z</time>
      </trkpt>
      <trkpt lat="48.50095" lon="-4.65001">
        <ele>63.451</ele>
        <time>2011-04-07T08:29:39Z</time>
      </trkpt>
      <trkpt lat="48.4997" lon="-4.64928">
        <ele>65.69</ele>
        <time>2011-04-07T08:29:58Z</time>
      </trkpt>
      <trkpt lat="48.49816" lon="-4.64889">
        <ele>67.518</ele>
        <time>2011-04-07T08:30:22Z</time>
      </trkpt>
      <trkpt lat="48.49696" lon="-4.64887">
        <ele>71.079</ele>
        <time>2011-04-07T08:30:43Z</time>
      </trkpt>
      <trkpt lat="48.49588" lon="-4.64846">
        <ele>71.288</ele>
        <time>2011-04-07T08:31:03Z</time>
      </trkpt>
      <trkpt lat="48.49458" lon="-4.64736">
        <ele>71.048</ele>
        <time>2011-04-07T08:31:23Z</time>
      </trkpt>
      <trkpt lat="48.493" lon="-4.64648">
        <ele>71.16</ele>
        <time>2011-04-07T08:31:47Z</time>
      </trkpt>
      <trkpt lat="48.49117" lon="-4.64587">
        <ele>73.455</ele>
        <time>2011-04-07T08:32:15Z</time>
      </trkpt>
      <trkpt lat="48.48905" lon="-4.6454">
        <ele>73.743</ele>
        <time>2011-04-07T08:32:46Z</time>
      </trkpt>
      <trkpt lat="48.48702" lon="-4.64499">
        <ele>76.006</ele>
        <time>2011-04-07T08:33:15Z</time>
      </trkpt>
      <trkpt lat="48.48464" lon="-4.64436">
        <ele>77.831</ele>
        <time>2011-04-07T08:33:50Z</time>
      </trkpt>
      <trkpt lat="48.48345" lon="-4.64366">
        <ele>74.578</ele>
        <time>2011-04-07T08:34:07Z</time>
      </trkpt>
      <trkpt lat="48.48172" lon="-4.64266">
        <ele>72.807</ele>
        <time>2011-04-07T08:34:30Z</time>
      </trkpt>
      <trkpt lat="48.48002" lon="-4.64171">
        <ele>75.611</ele>
        <time>2011-04-07T08:34:56Z</time>
      </trkpt>
      <trkpt lat="48.47928" lon="-4.64125">
        <ele>78.845</ele>
        <time>2011-04-07T08:35:11Z</time>
      </trkpt>
      <trkpt lat="48.47799" lon="-4.64031">
        <ele>76.715</ele>
        <time>2011-04-07T08:35:30Z</time>
      </trkpt>
      <trkpt lat="48.47695" lon="-4.64016">
        <ele>76.969</ele>
        <time>2011-04-07T08:35:45Z</time>
      </trkpt>
      <trkpt lat="48.47554" lon="-4.64026">
        <ele>79.801</ele>
        <time>2011-04-07T08:36:07Z</time>
      </trkpt>
      <trkpt lat="48.47452" lon="-4.64039">
        <ele>82.356</ele>
        <time>2011-04-07T08:36:25Z</time>
      </trkpt>
      <trkpt lat="48.47433" lon="-4.64039">
        <ele>82.396</ele>
        <time>2011-04-07T08:36:29Z</time>
      </trkpt>
      <trkpt lat="48.474" lon="-4.64022">
        <ele>82.131</ele>
        <time>2011-04-07T08:36:36Z</time>
      </trkpt>
      <trkpt lat="48.47373" lon="-4.63999">
        <ele>82.16</ele>
        <time>2011-04-07T08:36:42Z</time>
      </trkpt>
      <trkpt lat="48.47331" lon="-4.63958">
        <ele>83.753</ele>
        <time>2011-04-07T08:36:52Z</time>
      </trkpt>
      <trkpt lat="48.47326" lon="-4.6394">
        <ele>84.335</ele>
        <time>2011-04-07T08:36:56Z</time>
      </trkpt>
      <trkpt lat="48.47324" lon="-4.63865">
        <ele>85.445</ele>
        <time>2011-04-07T08:37:14Z</time>
      </trkpt>
    </trkseg>
  </trk>
  <trk>
    <name><![CDATA[ACTIVE LOG103740]]></name>
    <trkseg>
      <trkpt lat="48.47324" lon="-4.63865">
        <ele>85.864</ele>
        <time>2011-04-07T08:37:40Z</time>
      </trkpt>
      <trkpt lat="48.47324" lon="-4.63865">
        <ele>78.4</ele>
        <time>2011-04-07T08:37:41Z</time>
      </trkpt>
    </trkseg>
  </trk>
  <trk>
    <name><![CDATA[ACTIVE LOG104051]]></name>
    <trkseg>
      <trkpt lat="48.47324" lon="-4.63865">
        <ele>78.329</ele>
        <time>2011-04-07T08:40:51Z</time>
      </trkpt>
      <trkpt lat="48.47322" lon="-4.63843">
        <ele>77.726</ele>
        <time>2011-04-07T08:40:58Z</time>
      </trkpt>
      <trkpt lat="48.47321" lon="-4.63842">
        <ele>77.66</ele>
        <time>2011-04-07T08:41:01Z</time>
      </trkpt>
      <trkpt lat="48.47319" lon="-4.63799">
        <ele>77.565</ele>
        <time>2011-04-07T08:41:09Z</time>
      </trkpt>
      <trkpt lat="48.47296" lon="-4.63757">
        <ele>76.171</ele>
        <time>2011-04-07T08:41:17Z</time>
      </trkpt>
      <trkpt lat="48.47229" lon="-4.63699">
        <ele>79.408</ele>
        <time>2011-04-07T08:41:32Z</time>
      </trkpt>
      <trkpt lat="48.47171" lon="-4.63672">
        <ele>82.835</ele>
        <time>2011-04-07T08:41:44Z</time>
      </trkpt>
      <trkpt lat="48.47153" lon="-4.63663">
        <ele>83.969</ele>
        <time>2011-04-07T08:41:48Z</time>
      </trkpt>
      <trkpt lat="48.47135" lon="-4.63641">
        <ele>84.65</ele>
        <time>2011-04-07T08:41:53Z</time>
      </trkpt>
      <trkpt lat="48.47121" lon="-4.63607">
        <ele>84.88</ele>
        <time>2011-04-07T08:41:58Z</time>
      </trkpt>
      <trkpt lat="48.47099" lon="-4.63423">
        <ele>86.386</ele>
        <time>2011-04-07T08:42:20Z</time>
      </trkpt>
      <trkpt lat="48.47093" lon="-4.63279">
        <ele>89.501</ele>
        <time>2011-04-07T08:42:38Z</time>
      </trkpt>
      <trkpt lat="48.47099" lon="-4.63134">
        <ele>92.293</ele>
        <time>2011-04-07T08:42:57Z</time>
      </trkpt>
      <trkpt lat="48.47106" lon="-4.62973">
        <ele>95.314</ele>
        <time>2011-04-07T08:43:19Z</time>
      </trkpt>
      <trkpt lat="48.4712" lon="-4.62801">
        <ele>96.395</ele>
        <time>2011-04-07T08:43:42Z</time>
      </trkpt>
      <trkpt lat="48.47167" lon="-4.62685">
        <ele>95.931</ele>
        <time>2011-04-07T08:43:58Z</time>
      </trkpt>
      <trkpt lat="48.4717" lon="-4.6267">
        <ele>95.855</ele>
        <time>2011-04-07T08:44:00Z</time>
      </trkpt>
      <trkpt lat="48.47172" lon="-4.62649">
        <ele>96.126</ele>
        <time>2011-04-07T08:44:05Z</time>
      </trkpt>
      <trkpt lat="48.47147" lon="-4.62451">
        <ele>94.28</ele>
        <time>2011-04-07T08:44:25Z</time>
      </trkpt>
      <trkpt lat="48.47112" lon="-4.62204">
        <ele>91.928</ele>
        <time>2011-04-07T08:44:49Z</time>
      </trkpt>
      <trkpt lat="48.471" lon="-4.62011">
        <ele>92.306</ele>
        <time>2011-04-07T08:45:09Z</time>
      </trkpt>
      <trkpt lat="48.47086" lon="-4.61833">
        <ele>90.789</ele>
        <time>2011-04-07T08:45:27Z</time>
      </trkpt>
      <trkpt lat="48.47109" lon="-4.61718">
        <ele>89.371</ele>
        <time>2011-04-07T08:45:39Z</time>
      </trkpt>
      <trkpt lat="48.47117" lon="-4.617">
        <ele>88.39</ele>
        <time>2011-04-07T08:45:41Z</time>
      </trkpt>
      <trkpt lat="48.4721" lon="-4.61555">
        <ele>87.493</ele>
        <time>2011-04-07T08:46:00Z</time>
      </trkpt>
      <trkpt lat="48.47264" lon="-4.61414">
        <ele>87.492</ele>
        <time>2011-04-07T08:46:16Z</time>
      </trkpt>
      <trkpt lat="48.47254" lon="-4.61294">
        <ele>90.12</ele>
        <time>2011-04-07T08:46:29Z</time>
      </trkpt>
      <trkpt lat="48.47241" lon="-4.61151">
        <ele>90.997</ele>
        <time>2011-04-07T08:46:47Z</time>
      </trkpt>
      <trkpt lat="48.47214" lon="-4.60958">
        <ele>87.895</ele>
        <time>2011-04-07T08:47:06Z</time>
      </trkpt>
      <trkpt lat="48.47198" lon="-4.60857">
        <ele>85.955</ele>
        <time>2011-04-07T08:47:15Z</time>
      </trkpt>
      <trkpt lat="48.47144" lon="-4.60714">
        <ele>87.94</ele>
        <time>2011-04-07T08:47:31Z</time>
      </trkpt>
      <trkpt lat="48.47098" lon="-4.60603">
        <ele>90.948</ele>
        <time>2011-04-07T08:47:47Z</time>
      </trkpt>
      <trkpt lat="48.47067" lon="-4.60479">
        <ele>92.885</ele>
        <time>2011-04-07T08:48:04Z</time>
      </trkpt>
      <trkpt lat="48.47065" lon="-4.60422">
        <ele>92.72</ele>
        <time>2011-04-07T08:48:11Z</time>
      </trkpt>
      <trkpt lat="48.47065" lon="-4.60285">
        <ele>89.758</ele>
        <time>2011-04-07T08:48:26Z</time>
      </trkpt>
      <trkpt lat="48.47065" lon="-4.60273">
        <ele>89.598</ele>
        <time>2011-04-07T08:48:27Z</time>
      </trkpt>
      <trkpt lat="48.4704" lon="-4.60112">
        <ele>87.901</ele>
        <time>2011-04-07T08:48:42Z</time>
      </trkpt>
      <trkpt lat="48.47014" lon="-4.59868">
        <ele>86.146</ele>
        <time>2011-04-07T08:49:07Z</time>
      </trkpt>
      <trkpt lat="48.46968" lon="-4.59667">
        <ele>85.113</ele>
        <time>2011-04-07T08:49:25Z</time>
      </trkpt>
      <trkpt lat="48.46875" lon="-4.5946">
        <ele>83.797</ele>
        <time>2011-04-07T08:49:49Z</time>
      </trkpt>
      <trkpt lat="48.46774" lon="-4.59241">
        <ele>85.018</ele>
        <time>2011-04-07T08:50:17Z</time>
      </trkpt>
      <trkpt lat="48.4667" lon="-4.59058">
        <ele>84.993</ele>
        <time>2011-04-07T08:50:43Z</time>
      </trkpt>
      <trkpt lat="48.46568" lon="-4.58888">
        <ele>83.952</ele>
        <time>2011-04-07T08:51:05Z</time>
      </trkpt>
      <trkpt lat="48.4646" lon="-4.58707">
        <ele>85.57</ele>
        <time>2011-04-07T08:51:31Z</time>
      </trkpt>
      <trkpt lat="48.46358" lon="-4.58537">
        <ele>85.058</ele>
        <time>2011-04-07T08:51:55Z</time>
      </trkpt>
      <trkpt lat="48.46267" lon="-4.58396">
        <ele>85.329</ele>
        <time>2011-04-07T08:52:15Z</time>
      </trkpt>
      <trkpt lat="48.46177" lon="-4.58272">
        <ele>88.157</ele>
        <time>2011-04-07T08:52:37Z</time>
      </trkpt>
      <trkpt lat="48.46161" lon="-4.5825">
        <ele>88.373</ele>
        <time>2011-04-07T08:52:41Z</time>
      </trkpt>
      <trkpt lat="48.4615" lon="-4.58211">
        <ele>88.201</ele>
        <time>2011-04-07T08:52:46Z</time>
      </trkpt>
      <trkpt lat="48.46157" lon="-4.58045">
        <ele>85.085</ele>
        <time>2011-04-07T08:53:04Z</time>
      </trkpt>
      <trkpt lat="48.46183" lon="-4.57884">
        <ele>85.231</ele>
        <time>2011-04-07T08:53:21Z</time>
      </trkpt>
      <trkpt lat="48.46182" lon="-4.57856">
        <ele>85.784</ele>
        <time>2011-04-07T08:53:25Z</time>
      </trkpt>
      <trkpt lat="48.46181" lon="-4.57847">
        <ele>86.122</ele>
        <time>2011-04-07T08:53:29Z</time>
      </trkpt>
      <trkpt lat="48.46228" lon="-4.57727">
        <ele>86.319</ele>
        <time>2011-04-07T08:53:45Z</time>
      </trkpt>
      <trkpt lat="48.46248" lon="-4.57681">
        <ele>86.048</ele>
        <time>2011-04-07T08:53:51Z</time>
      </trkpt>
      <trkpt lat="48.46302" lon="-4.57552">
        <ele>83.565</ele>
        <time>2011-04-07T08:54:06Z</time>
      </trkpt>
      <trkpt lat="48.46359" lon="-4.57417">
        <ele>83.752</ele>
        <time>2011-04-07T08:54:21Z</time>
      </trkpt>
      <trkpt lat="48.46437" lon="-4.57262">
        <ele>85.184</ele>
        <time>2011-04-07T08:54:40Z</time>
      </trkpt>
      <trkpt lat="48.4647" lon="-4.57211">
        <ele>85.56</ele>
        <time>2011-04-07T08:54:47Z</time>
      </trkpt>
      <trkpt lat="48.46488" lon="-4.57158">
        <ele>86.325</ele>
        <time>2011-04-07T08:54:53Z</time>
      </trkpt>
      <trkpt lat="48.46519" lon="-4.56962">
        <ele>87.258</ele>
        <time>2011-04-07T08:55:14Z</time>
      </trkpt>
      <trkpt lat="48.46523" lon="-4.56939">
        <ele>87.395</ele>
        <time>2011-04-07T08:55:17Z</time>
      </trkpt>
      <trkpt lat="48.46569" lon="-4.56842">
        <ele>85.362</ele>
        <time>2011-04-07T08:55:30Z</time>
      </trkpt>
      <trkpt lat="48.4662" lon="-4.56713">
        <ele>83.726</ele>
        <time>2011-04-07T08:55:44Z</time>
      </trkpt>
      <trkpt lat="48.46654" lon="-4.56631">
        <ele>83.143</ele>
        <time>2011-04-07T08:55:53Z</time>
      </trkpt>
      <trkpt lat="48.46693" lon="-4.56564">
        <ele>82.285</ele>
        <time>2011-04-07T08:56:01Z</time>
      </trkpt>
      <trkpt lat="48.46703" lon="-4.56514">
        <ele>81.932</ele>
        <time>2011-04-07T08:56:06Z</time>
      </trkpt>
      <trkpt lat="48.46705" lon="-4.56503">
        <ele>81.375</ele>
        <time>2011-04-07T08:56:08Z</time>
      </trkpt>
      <trkpt lat="48.4673" lon="-4.56468">
        <ele>81.439</ele>
        <time>2011-04-07T08:56:12Z</time>
      </trkpt>
      <trkpt lat="48.46748" lon="-4.56449">
        <ele>81.214</ele>
        <time>2011-04-07T08:56:15Z</time>
      </trkpt>
      <trkpt lat="48.4677" lon="-4.56421">
        <ele>81.3</ele>
        <time>2011-04-07T08:56:19Z</time>
      </trkpt>
      <trkpt lat="48.46839" lon="-4.56326">
        <ele>80.585</ele>
        <time>2011-04-07T08:56:32Z</time>
      </trkpt>
      <trkpt lat="48.46878" lon="-4.56249">
        <ele>79.069</ele>
        <time>2011-04-07T08:56:43Z</time>
      </trkpt>
      <trkpt lat="48.4688" lon="-4.56242">
        <ele>78.507</ele>
        <time>2011-04-07T08:56:44Z</time>
      </trkpt>
      <trkpt lat="48.46898" lon="-4.56182">
        <ele>75.276</ele>
        <time>2011-04-07T08:56:52Z</time>
      </trkpt>
      <trkpt lat="48.46914" lon="-4.56122">
        <ele>73.796</ele>
        <time>2011-04-07T08:56:56Z</time>
      </trkpt>
      <trkpt lat="48.46948" lon="-4.55995">
        <ele>70.573</ele>
        <time>2011-04-07T08:57:07Z</time>
      </trkpt>
      <trkpt lat="48.46951" lon="-4.55983">
        <ele>70.324</ele>
        <time>2011-04-07T08:57:08Z</time>
      </trkpt>
      <trkpt lat="48.46993" lon="-4.5583">
        <ele>73.424</ele>
        <time>2011-04-07T08:57:22Z</time>
      </trkpt>
      <trkpt lat="48.46998" lon="-4.55803">
        <ele>74.836</ele>
        <time>2011-04-07T08:57:25Z</time>
      </trkpt>
      <trkpt lat="48.47005" lon="-4.55728">
        <ele>78.783</ele>
        <time>2011-04-07T08:57:34Z</time>
      </trkpt>
      <trkpt lat="48.47005" lon="-4.55635">
        <ele>81.859</ele>
        <time>2011-04-07T08:57:45Z</time>
      </trkpt>
      <trkpt lat="48.47005" lon="-4.55628">
        <ele>82.509</ele>
        <time>2011-04-07T08:57:48Z</time>
      </trkpt>
      <trkpt lat="48.47035" lon="-4.55448">
        <ele>81.088</ele>
        <time>2011-04-07T08:58:06Z</time>
      </trkpt>
      <trkpt lat="48.4707" lon="-4.55229">
        <ele>84.228</ele>
        <time>2011-04-07T08:58:29Z</time>
      </trkpt>
      <trkpt lat="48.47095" lon="-4.55055">
        <ele>87.539</ele>
        <time>2011-04-07T08:58:48Z</time>
      </trkpt>
      <trkpt lat="48.47093" lon="-4.5491">
        <ele>87.491</ele>
        <time>2011-04-07T08:59:03Z</time>
      </trkpt>
      <trkpt lat="48.47102" lon="-4.54724">
        <ele>86.773</ele>
        <time>2011-04-07T08:59:21Z</time>
      </trkpt>
      <trkpt lat="48.47124" lon="-4.54608">
        <ele>86.583</ele>
        <time>2011-04-07T08:59:32Z</time>
      </trkpt>
      <trkpt lat="48.47149" lon="-4.54568">
        <ele>86.71</ele>
        <time>2011-04-07T08:59:37Z</time>
      </trkpt>
      <trkpt lat="48.47247" lon="-4.54405">
        <ele>85.735</ele>
        <time>2011-04-07T08:59:57Z</time>
      </trkpt>
      <trkpt lat="48.47274" lon="-4.54252">
        <ele>84.656</ele>
        <time>2011-04-07T09:00:11Z</time>
      </trkpt>
      <trkpt lat="48.47308" lon="-4.54106">
        <ele>83.251</ele>
        <time>2011-04-07T09:00:25Z</time>
      </trkpt>
      <trkpt lat="48.47401" lon="-4.53891">
        <ele>82.832</ele>
        <time>2011-04-07T09:00:48Z</time>
      </trkpt>
      <trkpt lat="48.47443" lon="-4.5375">
        <ele>83.357</ele>
        <time>2011-04-07T09:01:02Z</time>
      </trkpt>
      <trkpt lat="48.47447" lon="-4.53697">
        <ele>82.271</ele>
        <time>2011-04-07T09:01:09Z</time>
      </trkpt>
      <trkpt lat="48.47436" lon="-4.5364">
        <ele>82.479</ele>
        <time>2011-04-07T09:01:12Z</time>
      </trkpt>
      <trkpt lat="48.47438" lon="-4.53571">
        <ele>83.134</ele>
        <time>2011-04-07T09:01:18Z</time>
      </trkpt>
      <trkpt lat="48.47517" lon="-4.53403">
        <ele>85.487</ele>
        <time>2011-04-07T09:01:37Z</time>
      </trkpt>
      <trkpt lat="48.47575" lon="-4.53265">
        <ele>83.733</ele>
        <time>2011-04-07T09:01:52Z</time>
      </trkpt>
      <trkpt lat="48.47641" lon="-4.53121">
        <ele>80.588</ele>
        <time>2011-04-07T09:02:06Z</time>
      </trkpt>
      <trkpt lat="48.47718" lon="-4.52859">
        <ele>79.456</ele>
        <time>2011-04-07T09:02:29Z</time>
      </trkpt>
      <trkpt lat="48.47734" lon="-4.52825">
        <ele>80.514</ele>
        <time>2011-04-07T09:02:33Z</time>
      </trkpt>
      <trkpt lat="48.47745" lon="-4.52802">
        <ele>82.115</ele>
        <time>2011-04-07T09:02:42Z</time>
      </trkpt>
      <trkpt lat="48.47745" lon="-4.52802">
        <ele>81.932</ele>
        <time>2011-04-07T09:02:53Z</time>
      </trkpt>
      <trkpt lat="48.47708" lon="-4.52777">
        <ele>79.225</ele>
        <time>2011-04-07T09:03:03Z</time>
      </trkpt>
      <trkpt lat="48.47681" lon="-4.52764">
        <ele>77.263</ele>
        <time>2011-04-07T09:03:08Z</time>
      </trkpt>
      <trkpt lat="48.47654" lon="-4.52746">
        <ele>73.198</ele>
        <time>2011-04-07T09:03:12Z</time>
      </trkpt>
      <trkpt lat="48.47607" lon="-4.52713">
        <ele>69.131</ele>
        <time>2011-04-07T09:03:18Z</time>
      </trkpt>
      <trkpt lat="48.47574" lon="-4.52684">
        <ele>67.223</ele>
        <time>2011-04-07T09:03:22Z</time>
      </trkpt>
      <trkpt lat="48.47482" lon="-4.52609">
        <ele>70.179</ele>
        <time>2011-04-07T09:03:35Z</time>
      </trkpt>
      <trkpt lat="48.47426" lon="-4.52572">
        <ele>73.33</ele>
        <time>2011-04-07T09:03:46Z</time>
      </trkpt>
      <trkpt lat="48.47314" lon="-4.52519">
        <ele>76.453</ele>
        <time>2011-04-07T09:04:08Z</time>
      </trkpt>
      <trkpt lat="48.472" lon="-4.52443">
        <ele>79.626</ele>
        <time>2011-04-07T09:04:32Z</time>
      </trkpt>
      <trkpt lat="48.47126" lon="-4.52371">
        <ele>82.722</ele>
        <time>2011-04-07T09:04:50Z</time>
      </trkpt>
      <trkpt lat="48.4707" lon="-4.52313">
        <ele>85.804</ele>
        <time>2011-04-07T09:05:04Z</time>
      </trkpt>
      <trkpt lat="48.47001" lon="-4.52243">
        <ele>89.015</ele>
        <time>2011-04-07T09:05:21Z</time>
      </trkpt>
      <trkpt lat="48.46949" lon="-4.52185">
        <ele>92.878</ele>
        <time>2011-04-07T09:05:34Z</time>
      </trkpt>
      <trkpt lat="48.46946" lon="-4.52179">
        <ele>92.294</ele>
        <time>2011-04-07T09:05:35Z</time>
      </trkpt>
      <trkpt lat="48.46898" lon="-4.52091">
        <ele>93.362</ele>
        <time>2011-04-07T09:05:52Z</time>
      </trkpt>
      <trkpt lat="48.46834" lon="-4.51956">
        <ele>92.976</ele>
        <time>2011-04-07T09:06:14Z</time>
      </trkpt>
      <trkpt lat="48.46744" lon="-4.5181">
        <ele>91.244</ele>
        <time>2011-04-07T09:06:34Z</time>
      </trkpt>
      <trkpt lat="48.4663" lon="-4.5169">
        <ele>88.202</ele>
        <time>2011-04-07T09:06:52Z</time>
      </trkpt>
      <trkpt lat="48.46503" lon="-4.51538">
        <ele>85.529</ele>
        <time>2011-04-07T09:07:12Z</time>
      </trkpt>
      <trkpt lat="48.4635" lon="-4.5137">
        <ele>83.18</ele>
        <time>2011-04-07T09:07:34Z</time>
      </trkpt>
      <trkpt lat="48.46233" lon="-4.51268">
        <ele>85.206</ele>
        <time>2011-04-07T09:07:52Z</time>
      </trkpt>
      <trkpt lat="48.46078" lon="-4.51225">
        <ele>85.263</ele>
        <time>2011-04-07T09:08:13Z</time>
      </trkpt>
      <trkpt lat="48.45959" lon="-4.51235">
        <ele>88.528</ele>
        <time>2011-04-07T09:08:30Z</time>
      </trkpt>
      <trkpt lat="48.45787" lon="-4.51236">
        <ele>91.737</ele>
        <time>2011-04-07T09:08:57Z</time>
      </trkpt>
      <trkpt lat="48.45592" lon="-4.51223">
        <ele>91.678</ele>
        <time>2011-04-07T09:09:27Z</time>
      </trkpt>
      <trkpt lat="48.45371" lon="-4.5121">
        <ele>89.561</ele>
        <time>2011-04-07T09:09:57Z</time>
      </trkpt>
      <trkpt lat="48.45189" lon="-4.51229">
        <ele>89.072</ele>
        <time>2011-04-07T09:10:20Z</time>
      </trkpt>
      <trkpt lat="48.45038" lon="-4.51224">
        <ele>90.01</ele>
        <time>2011-04-07T09:10:40Z</time>
      </trkpt>
      <trkpt lat="48.44941" lon="-4.51176">
        <ele>91.02</ele>
        <time>2011-04-07T09:10:54Z</time>
      </trkpt>
      <trkpt lat="48.44936" lon="-4.51173">
        <ele>91.42</ele>
        <time>2011-04-07T09:10:57Z</time>
      </trkpt>
      <trkpt lat="48.44906" lon="-4.51182">
        <ele>91.367</ele>
        <time>2011-04-07T09:11:02Z</time>
      </trkpt>
      <trkpt lat="48.44868" lon="-4.51165">
        <ele>90.933</ele>
        <time>2011-04-07T09:11:07Z</time>
      </trkpt>
      <trkpt lat="48.44852" lon="-4.51137">
        <ele>90.006</ele>
        <time>2011-04-07T09:11:10Z</time>
      </trkpt>
      <trkpt lat="48.44768" lon="-4.51059">
        <ele>86.759</ele>
        <time>2011-04-07T09:11:24Z</time>
      </trkpt>
      <trkpt lat="48.4466" lon="-4.51037">
        <ele>84.191</ele>
        <time>2011-04-07T09:11:38Z</time>
      </trkpt>
      <trkpt lat="48.44532" lon="-4.51063">
        <ele>83.568</ele>
        <time>2011-04-07T09:11:55Z</time>
      </trkpt>
      <trkpt lat="48.44437" lon="-4.51073">
        <ele>80.117</ele>
        <time>2011-04-07T09:12:07Z</time>
      </trkpt>
      <trkpt lat="48.44282" lon="-4.51086">
        <ele>80.634</ele>
        <time>2011-04-07T09:12:27Z</time>
      </trkpt>
      <trkpt lat="48.44174" lon="-4.51074">
        <ele>77.563</ele>
        <time>2011-04-07T09:12:41Z</time>
      </trkpt>
      <trkpt lat="48.44131" lon="-4.51067">
        <ele>75.536</ele>
        <time>2011-04-07T09:12:46Z</time>
      </trkpt>
      <trkpt lat="48.44095" lon="-4.51062">
        <ele>72.049</ele>
        <time>2011-04-07T09:12:52Z</time>
      </trkpt>
      <trkpt lat="48.44054" lon="-4.51055">
        <ele>70.768</ele>
        <time>2011-04-07T09:12:54Z</time>
      </trkpt>
      <trkpt lat="48.44003" lon="-4.51047">
        <ele>67.753</ele>
        <time>2011-04-07T09:12:59Z</time>
      </trkpt>
      <trkpt lat="48.43992" lon="-4.51045">
        <ele>67.602</ele>
        <time>2011-04-07T09:13:00Z</time>
      </trkpt>
      <trkpt lat="48.43961" lon="-4.51037">
        <ele>65.438</ele>
        <time>2011-04-07T09:13:03Z</time>
      </trkpt>
      <trkpt lat="48.43846" lon="-4.50987">
        <ele>67.854</ele>
        <time>2011-04-07T09:13:16Z</time>
      </trkpt>
      <trkpt lat="48.43766" lon="-4.50925">
        <ele>70.86</ele>
        <time>2011-04-07T09:13:28Z</time>
      </trkpt>
      <trkpt lat="48.43755" lon="-4.50912">
        <ele>71.732</ele>
        <time>2011-04-07T09:13:30Z</time>
      </trkpt>
      <trkpt lat="48.43685" lon="-4.50811">
        <ele>73.042</ele>
        <time>2011-04-07T09:13:44Z</time>
      </trkpt>
      <trkpt lat="48.43651" lon="-4.50828">
        <ele>73.618</ele>
        <time>2011-04-07T09:13:50Z</time>
      </trkpt>
      <trkpt lat="48.43576" lon="-4.50926">
        <ele>72.948</ele>
        <time>2011-04-07T09:14:06Z</time>
      </trkpt>
      <trkpt lat="48.4349" lon="-4.50968">
        <ele>69.499</ele>
        <time>2011-04-07T09:14:19Z</time>
      </trkpt>
      <trkpt lat="48.4338" lon="-4.50992">
        <ele>66.334</ele>
        <time>2011-04-07T09:14:34Z</time>
      </trkpt>
      <trkpt lat="48.43347" lon="-4.50999">
        <ele>64.466</ele>
        <time>2011-04-07T09:14:38Z</time>
      </trkpt>
      <trkpt lat="48.43311" lon="-4.51007">
        <ele>61.009</ele>
        <time>2011-04-07T09:14:42Z</time>
      </trkpt>
      <trkpt lat="48.43302" lon="-4.5101">
        <ele>61.004</ele>
        <time>2011-04-07T09:14:43Z</time>
      </trkpt>
      <trkpt lat="48.4319" lon="-4.51057">
        <ele>58.479</ele>
        <time>2011-04-07T09:14:56Z</time>
      </trkpt>
      <trkpt lat="48.43183" lon="-4.51061">
        <ele>58.634</ele>
        <time>2011-04-07T09:14:57Z</time>
      </trkpt>
      <trkpt lat="48.43173" lon="-4.51066">
        <ele>58.428</ele>
        <time>2011-04-07T09:15:01Z</time>
      </trkpt>
      <trkpt lat="48.43121" lon="-4.511">
        <ele>57.372</ele>
        <time>2011-04-07T09:15:07Z</time>
      </trkpt>
      <trkpt lat="48.43121" lon="-4.511">
        <ele>57.684</ele>
        <time>2011-04-07T09:15:09Z</time>
      </trkpt>
      <trkpt lat="48.43087" lon="-4.5109">
        <ele>57.387</ele>
        <time>2011-04-07T09:15:14Z</time>
      </trkpt>
      <trkpt lat="48.43068" lon="-4.51079">
        <ele>57.279</ele>
        <time>2011-04-07T09:15:17Z</time>
      </trkpt>
      <trkpt lat="48.43032" lon="-4.51052">
        <ele>55.99</ele>
        <time>2011-04-07T09:15:23Z</time>
      </trkpt>
      <trkpt lat="48.43009" lon="-4.51014">
        <ele>55.093</ele>
        <time>2011-04-07T09:15:28Z</time>
      </trkpt>
      <trkpt lat="48.42977" lon="-4.50954">
        <ele>53.297</ele>
        <time>2011-04-07T09:15:35Z</time>
      </trkpt>
      <trkpt lat="48.42927" lon="-4.50835">
        <ele>50.301</ele>
        <time>2011-04-07T09:15:48Z</time>
      </trkpt>
      <trkpt lat="48.42877" lon="-4.50656">
        <ele>47.886</ele>
        <time>2011-04-07T09:16:06Z</time>
      </trkpt>
      <trkpt lat="48.42869" lon="-4.50639">
        <ele>47.347</ele>
        <time>2011-04-07T09:16:08Z</time>
      </trkpt>
      <trkpt lat="48.42792" lon="-4.50568">
        <ele>47.636</ele>
        <time>2011-04-07T09:16:21Z</time>
      </trkpt>
      <trkpt lat="48.42769" lon="-4.5056">
        <ele>47.849</ele>
        <time>2011-04-07T09:16:25Z</time>
      </trkpt>
      <trkpt lat="48.42684" lon="-4.50582">
        <ele>49.29</ele>
        <time>2011-04-07T09:16:39Z</time>
      </trkpt>
      <trkpt lat="48.42548" lon="-4.50628">
        <ele>50.783</ele>
        <time>2011-04-07T09:17:00Z</time>
      </trkpt>
      <trkpt lat="48.42469" lon="-4.50604">
        <ele>53.218</ele>
        <time>2011-04-07T09:17:14Z</time>
      </trkpt>
      <trkpt lat="48.4238" lon="-4.50551">
        <ele>55.869</ele>
        <time>2011-04-07T09:17:33Z</time>
      </trkpt>
      <trkpt lat="48.42358" lon="-4.50536">
        <ele>57.71</ele>
        <time>2011-04-07T09:17:38Z</time>
      </trkpt>
      <trkpt lat="48.42349" lon="-4.5053">
        <ele>59.04</ele>
        <time>2011-04-07T09:17:42Z</time>
      </trkpt>
      <trkpt lat="48.4231" lon="-4.50519">
        <ele>61.067</ele>
        <time>2011-04-07T09:17:52Z</time>
      </trkpt>
      <trkpt lat="48.4231" lon="-4.50508">
        <ele>60.823</ele>
        <time>2011-04-07T09:17:54Z</time>
      </trkpt>
      <trkpt lat="48.42247" lon="-4.50474">
        <ele>60.852</ele>
        <time>2011-04-07T09:18:09Z</time>
      </trkpt>
      <trkpt lat="48.4218" lon="-4.50419">
        <ele>61.528</ele>
        <time>2011-04-07T09:18:24Z</time>
      </trkpt>
      <trkpt lat="48.4213" lon="-4.50319">
        <ele>62.351</ele>
        <time>2011-04-07T09:18:38Z</time>
      </trkpt>
      <trkpt lat="48.42112" lon="-4.50263">
        <ele>65.061</ele>
        <time>2011-04-07T09:18:48Z</time>
      </trkpt>
      <trkpt lat="48.42085" lon="-4.50135">
        <ele>67.638</ele>
        <time>2011-04-07T09:19:05Z</time>
      </trkpt>
      <trkpt lat="48.42029" lon="-4.49998">
        <ele>69.58</ele>
        <time>2011-04-07T09:19:26Z</time>
      </trkpt>
      <trkpt lat="48.41951" lon="-4.49901">
        <ele>69.107</ele>
        <time>2011-04-07T09:19:44Z</time>
      </trkpt>
      <trkpt lat="48.41862" lon="-4.49815">
        <ele>67.55</ele>
        <time>2011-04-07T09:20:02Z</time>
      </trkpt>
      <trkpt lat="48.41849" lon="-4.49803">
        <ele>68.294</ele>
        <time>2011-04-07T09:20:06Z</time>
      </trkpt>
      <trkpt lat="48.41852" lon="-4.49804">
        <ele>68.539</ele>
        <time>2011-04-07T09:20:12Z</time>
      </trkpt>
      <trkpt lat="48.41839" lon="-4.49795">
        <ele>68.411</ele>
        <time>2011-04-07T09:20:21Z</time>
      </trkpt>
      <trkpt lat="48.41839" lon="-4.49795">
        <ele>68.331</ele>
        <time>2011-04-07T09:20:24Z</time>
      </trkpt>
      <trkpt lat="48.41832" lon="-4.4979">
        <ele>67.703</ele>
        <time>2011-04-07T09:20:30Z</time>
      </trkpt>
      <trkpt lat="48.41781" lon="-4.49749">
        <ele>65.978</ele>
        <time>2011-04-07T09:20:43Z</time>
      </trkpt>
      <trkpt lat="48.41716" lon="-4.49698">
        <ele>67.708</ele>
        <time>2011-04-07T09:20:59Z</time>
      </trkpt>
      <trkpt lat="48.4169" lon="-4.49677">
        <ele>68.333</ele>
        <time>2011-04-07T09:21:10Z</time>
      </trkpt>
      <trkpt lat="48.4169" lon="-4.49677">
        <ele>68.556</ele>
        <time>2011-04-07T09:21:20Z</time>
      </trkpt>
      <trkpt lat="48.4169" lon="-4.49677">
        <ele>68.391</ele>
        <time>2011-04-07T09:21:31Z</time>
      </trkpt>
      <trkpt lat="48.41697" lon="-4.49683">
        <ele>68.107</ele>
        <time>2011-04-07T09:21:35Z</time>
      </trkpt>
      <trkpt lat="48.41745" lon="-4.49721">
        <ele>66.801</ele>
        <time>2011-04-07T09:21:46Z</time>
      </trkpt>
      <trkpt lat="48.41828" lon="-4.49787">
        <ele>67.201</ele>
        <time>2011-04-07T09:22:03Z</time>
      </trkpt>
      <trkpt lat="48.41845" lon="-4.49767">
        <ele>67.786</ele>
        <time>2011-04-07T09:22:09Z</time>
      </trkpt>
      <trkpt lat="48.41814" lon="-4.49775">
        <ele>64.731</ele>
        <time>2011-04-07T09:22:15Z</time>
      </trkpt>
      <trkpt lat="48.41805" lon="-4.49768">
        <ele>63.956</ele>
        <time>2011-04-07T09:22:17Z</time>
      </trkpt>
      <trkpt lat="48.41805" lon="-4.49664">
        <ele>62.386</ele>
        <time>2011-04-07T09:22:22Z</time>
      </trkpt>
      <trkpt lat="48.41787" lon="-4.49646">
        <ele>60.992</ele>
        <time>2011-04-07T09:22:25Z</time>
      </trkpt>
      <trkpt lat="48.41764" lon="-4.49623">
        <ele>60.333</ele>
        <time>2011-04-07T09:22:29Z</time>
      </trkpt>
      <trkpt lat="48.41745" lon="-4.49568">
        <ele>60.411</ele>
        <time>2011-04-07T09:22:36Z</time>
      </trkpt>
      <trkpt lat="48.41724" lon="-4.49509">
        <ele>58.646</ele>
        <time>2011-04-07T09:22:42Z</time>
      </trkpt>
      <trkpt lat="48.41723" lon="-4.49468">
        <ele>59.81</ele>
        <time>2011-04-07T09:22:47Z</time>
      </trkpt>
      <trkpt lat="48.4173" lon="-4.49431">
        <ele>62.17</ele>
        <time>2011-04-07T09:22:53Z</time>
      </trkpt>
      <trkpt lat="48.41722" lon="-4.49416">
        <ele>62.411</ele>
        <time>2011-04-07T09:23:04Z</time>
      </trkpt>
      <trkpt lat="48.41685" lon="-4.49374">
        <ele>64.998</ele>
        <time>2011-04-07T09:23:16Z</time>
      </trkpt>
      <trkpt lat="48.41648" lon="-4.49342">
        <ele>68.317</ele>
        <time>2011-04-07T09:23:27Z</time>
      </trkpt>
      <trkpt lat="48.4164" lon="-4.49336">
        <ele>68.468</ele>
        <time>2011-04-07T09:23:29Z</time>
      </trkpt>
      <trkpt lat="48.41592" lon="-4.493">
        <ele>72.407</ele>
        <time>2011-04-07T09:23:43Z</time>
      </trkpt>
      <trkpt lat="48.41572" lon="-4.49285">
        <ele>74.202</ele>
        <time>2011-04-07T09:23:54Z</time>
      </trkpt>
      <trkpt lat="48.41554" lon="-4.49249">
        <ele>75.938</ele>
        <time>2011-04-07T09:24:06Z</time>
      </trkpt>
      <trkpt lat="48.41547" lon="-4.49235">
        <ele>76.344</ele>
        <time>2011-04-07T09:24:25Z</time>
      </trkpt>
      <trkpt lat="48.41539" lon="-4.49212">
        <ele>76.688</ele>
        <time>2011-04-07T09:24:31Z</time>
      </trkpt>
      <trkpt lat="48.41472" lon="-4.49212">
        <ele>77.997</ele>
        <time>2011-04-07T09:24:44Z</time>
      </trkpt>
      <trkpt lat="48.41464" lon="-4.49212">
        <ele>77.98</ele>
        <time>2011-04-07T09:24:46Z</time>
      </trkpt>
      <trkpt lat="48.4145" lon="-4.49201">
        <ele>77.69</ele>
        <time>2011-04-07T09:24:50Z</time>
      </trkpt>
      <trkpt lat="48.4143" lon="-4.49168">
        <ele>77.366</ele>
        <time>2011-04-07T09:25:01Z</time>
      </trkpt>
      <trkpt lat="48.41388" lon="-4.49147">
        <ele>74.16</ele>
        <time>2011-04-07T09:25:11Z</time>
      </trkpt>
      <trkpt lat="48.4137" lon="-4.4914">
        <ele>73.253</ele>
        <time>2011-04-07T09:25:15Z</time>
      </trkpt>
      <trkpt lat="48.41325" lon="-4.49126">
        <ele>70.804</ele>
        <time>2011-04-07T09:25:24Z</time>
      </trkpt>
      <trkpt lat="48.41314" lon="-4.49122">
        <ele>69.884</ele>
        <time>2011-04-07T09:25:26Z</time>
      </trkpt>
      <trkpt lat="48.41271" lon="-4.49117">
        <ele>67.816</ele>
        <time>2011-04-07T09:25:32Z</time>
      </trkpt>
      <trkpt lat="48.41217" lon="-4.49109">
        <ele>64.961</ele>
        <time>2011-04-07T09:25:39Z</time>
      </trkpt>
      <trkpt lat="48.41142" lon="-4.491">
        <ele>61.417</ele>
        <time>2011-04-07T09:25:48Z</time>
      </trkpt>
      <trkpt lat="48.41134" lon="-4.49099">
        <ele>61.469</ele>
        <time>2011-04-07T09:25:49Z</time>
      </trkpt>
      <trkpt lat="48.41036" lon="-4.49091">
        <ele>58.359</ele>
        <time>2011-04-07T09:26:00Z</time>
      </trkpt>
      <trkpt lat="48.40886" lon="-4.49071">
        <ele>56.07</ele>
        <time>2011-04-07T09:26:19Z</time>
      </trkpt>
      <trkpt lat="48.4088" lon="-4.4907">
        <ele>55.444</ele>
        <time>2011-04-07T09:26:20Z</time>
      </trkpt>
      <trkpt lat="48.40833" lon="-4.49039">
        <ele>52.129</ele>
        <time>2011-04-07T09:26:26Z</time>
      </trkpt>
      <trkpt lat="48.4078" lon="-4.49004">
        <ele>48.909</ele>
        <time>2011-04-07T09:26:33Z</time>
      </trkpt>
      <trkpt lat="48.40773" lon="-4.49">
        <ele>48.67</ele>
        <time>2011-04-07T09:26:34Z</time>
      </trkpt>
      <trkpt lat="48.40745" lon="-4.48981">
        <ele>46.305</ele>
        <time>2011-04-07T09:26:38Z</time>
      </trkpt>
      <trkpt lat="48.40698" lon="-4.48948">
        <ele>42.469</ele>
        <time>2011-04-07T09:26:44Z</time>
      </trkpt>
      <trkpt lat="48.40654" lon="-4.48915">
        <ele>39.317</ele>
        <time>2011-04-07T09:26:49Z</time>
      </trkpt>
      <trkpt lat="48.40619" lon="-4.48916">
        <ele>38.532</ele>
        <time>2011-04-07T09:26:53Z</time>
      </trkpt>
      <trkpt lat="48.40576" lon="-4.48916">
        <ele>37.521</ele>
        <time>2011-04-07T09:26:58Z</time>
      </trkpt>
      <trkpt lat="48.40511" lon="-4.48907">
        <ele>34.524</ele>
        <time>2011-04-07T09:27:06Z</time>
      </trkpt>
      <trkpt lat="48.40485" lon="-4.48907">
        <ele>33.291</ele>
        <time>2011-04-07T09:27:09Z</time>
      </trkpt>
      <trkpt lat="48.40432" lon="-4.48907">
        <ele>30.244</ele>
        <time>2011-04-07T09:27:18Z</time>
      </trkpt>
      <trkpt lat="48.40417" lon="-4.48907">
        <ele>29.14</ele>
        <time>2011-04-07T09:27:21Z</time>
      </trkpt>
      <trkpt lat="48.40396" lon="-4.48907">
        <ele>27.46</ele>
        <time>2011-04-07T09:27:26Z</time>
      </trkpt>
      <trkpt lat="48.40396" lon="-4.48907">
        <ele>26.442</ele>
        <time>2011-04-07T09:27:29Z</time>
      </trkpt>
      <trkpt lat="48.40348" lon="-4.48895">
        <ele>26.766</ele>
        <time>2011-04-07T09:27:34Z</time>
      </trkpt>
      <trkpt lat="48.40333" lon="-4.48891">
        <ele>26.786</ele>
        <time>2011-04-07T09:27:37Z</time>
      </trkpt>
      <trkpt lat="48.403" lon="-4.48869">
        <ele>26.813</ele>
        <time>2011-04-07T09:27:43Z</time>
      </trkpt>
      <trkpt lat="48.40275" lon="-4.48859">
        <ele>26.357</ele>
        <time>2011-04-07T09:27:47Z</time>
      </trkpt>
      <trkpt lat="48.40249" lon="-4.48859">
        <ele>26.109</ele>
        <time>2011-04-07T09:27:51Z</time>
      </trkpt>
      <trkpt lat="48.40224" lon="-4.48865">
        <ele>25.683</ele>
        <time>2011-04-07T09:27:55Z</time>
      </trkpt>
      <trkpt lat="48.40171" lon="-4.48939">
        <ele>26.532</ele>
        <time>2011-04-07T09:28:06Z</time>
      </trkpt>
      <trkpt lat="48.40061" lon="-4.48999">
        <ele>22.594</ele>
        <time>2011-04-07T09:28:24Z</time>
      </trkpt>
      <trkpt lat="48.40019" lon="-4.49023">
        <ele>22.979</ele>
        <time>2011-04-07T09:28:33Z</time>
      </trkpt>
      <trkpt lat="48.39961" lon="-4.49097">
        <ele>19.645</ele>
        <time>2011-04-07T09:28:47Z</time>
      </trkpt>
      <trkpt lat="48.39952" lon="-4.49109">
        <ele>19.582</ele>
        <time>2011-04-07T09:28:49Z</time>
      </trkpt>
      <trkpt lat="48.39941" lon="-4.49122">
        <ele>19.621</ele>
        <time>2011-04-07T09:28:53Z</time>
      </trkpt>
      <trkpt lat="48.39941" lon="-4.49122">
        <ele>19.652</ele>
        <time>2011-04-07T09:28:55Z</time>
      </trkpt>
      <trkpt lat="48.39911" lon="-4.49135">
        <ele>18.803</ele>
        <time>2011-04-07T09:28:59Z</time>
      </trkpt>
      <trkpt lat="48.39882" lon="-4.49093">
        <ele>16.673</ele>
        <time>2011-04-07T09:29:05Z</time>
      </trkpt>
      <trkpt lat="48.39819" lon="-4.49063">
        <ele>13.395</ele>
        <time>2011-04-07T09:29:14Z</time>
      </trkpt>
      <trkpt lat="48.3981" lon="-4.49062">
        <ele>12.56</ele>
        <time>2011-04-07T09:29:15Z</time>
      </trkpt>
      <trkpt lat="48.39746" lon="-4.49086">
        <ele>9.263</ele>
        <time>2011-04-07T09:29:23Z</time>
      </trkpt>
      <trkpt lat="48.3974" lon="-4.49094">
        <ele>8.835</ele>
        <time>2011-04-07T09:29:24Z</time>
      </trkpt>
      <trkpt lat="48.39665" lon="-4.49207">
        <ele>8.23</ele>
        <time>2011-04-07T09:29:38Z</time>
      </trkpt>
      <trkpt lat="48.39595" lon="-4.49291">
        <ele>10.313</ele>
        <time>2011-04-07T09:29:52Z</time>
      </trkpt>
      <trkpt lat="48.39589" lon="-4.49302">
        <ele>11.534</ele>
        <time>2011-04-07T09:29:55Z</time>
      </trkpt>
      <trkpt lat="48.39555" lon="-4.49365">
        <ele>14.691</ele>
        <time>2011-04-07T09:30:05Z</time>
      </trkpt>
      <trkpt lat="48.39553" lon="-4.4937">
        <ele>14.846</ele>
        <time>2011-04-07T09:30:06Z</time>
      </trkpt>
      <trkpt lat="48.39522" lon="-4.49424">
        <ele>18.011</ele>
        <time>2011-04-07T09:30:18Z</time>
      </trkpt>
      <trkpt lat="48.39493" lon="-4.49472">
        <ele>21.044</ele>
        <time>2011-04-07T09:30:29Z</time>
      </trkpt>
      <trkpt lat="48.39485" lon="-4.49486">
        <ele>21.522</ele>
        <time>2011-04-07T09:30:32Z</time>
      </trkpt>
      <trkpt lat="48.39475" lon="-4.49503">
        <ele>22.704</ele>
        <time>2011-04-07T09:30:36Z</time>
      </trkpt>
      <trkpt lat="48.39466" lon="-4.49517">
        <ele>23.688</ele>
        <time>2011-04-07T09:30:39Z</time>
      </trkpt>
      <trkpt lat="48.39429" lon="-4.4958">
        <ele>27.164</ele>
        <time>2011-04-07T09:30:53Z</time>
      </trkpt>
      <trkpt lat="48.39377" lon="-4.49669">
        <ele>29.054</ele>
        <time>2011-04-07T09:31:14Z</time>
      </trkpt>
      <trkpt lat="48.39349" lon="-4.49719">
        <ele>29.163</ele>
        <time>2011-04-07T09:31:23Z</time>
      </trkpt>
      <trkpt lat="48.39326" lon="-4.49822">
        <ele>27.812</ele>
        <time>2011-04-07T09:31:35Z</time>
      </trkpt>
      <trkpt lat="48.39287" lon="-4.4986">
        <ele>27.182</ele>
        <time>2011-04-07T09:31:43Z</time>
      </trkpt>
      <trkpt lat="48.39263" lon="-4.49843">
        <ele>25.973</ele>
        <time>2011-04-07T09:31:49Z</time>
      </trkpt>
      <trkpt lat="48.39195" lon="-4.49666">
        <ele>27.857</ele>
        <time>2011-04-07T09:32:09Z</time>
      </trkpt>
      <trkpt lat="48.39139" lon="-4.49517">
        <ele>28.778</ele>
        <time>2011-04-07T09:32:29Z</time>
      </trkpt>
      <trkpt lat="48.39126" lon="-4.49489">
        <ele>28.968</ele>
        <time>2011-04-07T09:32:33Z</time>
      </trkpt>
      <trkpt lat="48.39037" lon="-4.49344">
        <ele>30.983</ele>
        <time>2011-04-07T09:32:55Z</time>
      </trkpt>
      <trkpt lat="48.39013" lon="-4.49334">
        <ele>30.285</ele>
        <time>2011-04-07T09:32:59Z</time>
      </trkpt>
      <trkpt lat="48.38877" lon="-4.49318">
        <ele>28.456</ele>
        <time>2011-04-07T09:33:19Z</time>
      </trkpt>
      <trkpt lat="48.38776" lon="-4.49315">
        <ele>27.531</ele>
        <time>2011-04-07T09:33:33Z</time>
      </trkpt>
      <trkpt lat="48.38761" lon="-4.49315">
        <ele>26.952</ele>
        <time>2011-04-07T09:33:37Z</time>
      </trkpt>
      <trkpt lat="48.38678" lon="-4.4931">
        <ele>26.366</ele>
        <time>2011-04-07T09:33:48Z</time>
      </trkpt>
      <trkpt lat="48.38655" lon="-4.49308">
        <ele>26.559</ele>
        <time>2011-04-07T09:33:52Z</time>
      </trkpt>
      <trkpt lat="48.38621" lon="-4.49304">
        <ele>27.268</ele>
        <time>2011-04-07T09:34:02Z</time>
      </trkpt>
      <trkpt lat="48.38602" lon="-4.49302">
        <ele>26.982</ele>
        <time>2011-04-07T09:34:07Z</time>
      </trkpt>
      <trkpt lat="48.38585" lon="-4.49323">
        <ele>26.303</ele>
        <time>2011-04-07T09:34:11Z</time>
      </trkpt>
      <trkpt lat="48.38502" lon="-4.49427">
        <ele>24.243</ele>
        <time>2011-04-07T09:34:28Z</time>
      </trkpt>
      <trkpt lat="48.38493" lon="-4.49436">
        <ele>24.009</ele>
        <time>2011-04-07T09:34:30Z</time>
      </trkpt>
      <trkpt lat="48.3847" lon="-4.49442">
        <ele>24.911</ele>
        <time>2011-04-07T09:34:36Z</time>
      </trkpt>
      <trkpt lat="48.3846" lon="-4.49435">
        <ele>25.107</ele>
        <time>2011-04-07T09:34:41Z</time>
      </trkpt>
      <trkpt lat="48.38443" lon="-4.49501">
        <ele>23.747</ele>
        <time>2011-04-07T09:34:51Z</time>
      </trkpt>
      <trkpt lat="48.38439" lon="-4.49534">
        <ele>23.751</ele>
        <time>2011-04-07T09:34:57Z</time>
      </trkpt>
      <trkpt lat="48.38432" lon="-4.49629">
        <ele>23.461</ele>
        <time>2011-04-07T09:35:05Z</time>
      </trkpt>
      <trkpt lat="48.38419" lon="-4.49772">
        <ele>23.125</ele>
        <time>2011-04-07T09:35:20Z</time>
      </trkpt>
      <trkpt lat="48.38413" lon="-4.49869">
        <ele>19.11</ele>
        <time>2011-04-07T09:35:30Z</time>
      </trkpt>
      <trkpt lat="48.38432" lon="-4.49968">
        <ele>18.661</ele>
        <time>2011-04-07T09:35:37Z</time>
      </trkpt>
      <trkpt lat="48.38412" lon="-4.49998">
        <ele>19.811</ele>
        <time>2011-04-07T09:35:45Z</time>
      </trkpt>
      <trkpt lat="48.38412" lon="-4.49998">
        <ele>19.83</ele>
        <time>2011-04-07T09:36:00Z</time>
      </trkpt>
      <trkpt lat="48.38426" lon="-4.50015">
        <ele>19.162</ele>
        <time>2011-04-07T09:36:12Z</time>
      </trkpt>
      <trkpt lat="48.3842" lon="-4.50147">
        <ele>22.202</ele>
        <time>2011-04-07T09:36:27Z</time>
      </trkpt>
      <trkpt lat="48.38417" lon="-4.50172">
        <ele>23.768</ele>
        <time>2011-04-07T09:36:31Z</time>
      </trkpt>
      <trkpt lat="48.38414" lon="-4.502">
        <ele>25.457</ele>
        <time>2011-04-07T09:36:36Z</time>
      </trkpt>
      <trkpt lat="48.3841" lon="-4.50239">
        <ele>27.878</ele>
        <time>2011-04-07T09:36:43Z</time>
      </trkpt>
      <trkpt lat="48.38405" lon="-4.50316">
        <ele>31.008</ele>
        <time>2011-04-07T09:36:59Z</time>
      </trkpt>
      <trkpt lat="48.38403" lon="-4.50339">
        <ele>32.093</ele>
        <time>2011-04-07T09:37:13Z</time>
      </trkpt>
      <trkpt lat="48.38401" lon="-4.50373">
        <ele>32.914</ele>
        <time>2011-04-07T09:37:27Z</time>
      </trkpt>
      <trkpt lat="48.38394" lon="-4.50462">
        <ele>34.668</ele>
        <time>2011-04-07T09:37:42Z</time>
      </trkpt>
      <trkpt lat="48.38385" lon="-4.50519">
        <ele>37.377</ele>
        <time>2011-04-07T09:37:51Z</time>
      </trkpt>
      <trkpt lat="48.3836" lon="-4.50524">
        <ele>37.54</ele>
        <time>2011-04-07T09:37:56Z</time>
      </trkpt>
      <trkpt lat="48.38336" lon="-4.50472">
        <ele>40.312</ele>
        <time>2011-04-07T09:38:09Z</time>
      </trkpt>
      <trkpt lat="48.38303" lon="-4.50452">
        <ele>42.408</ele>
        <time>2011-04-07T09:38:24Z</time>
      </trkpt>
      <trkpt lat="48.3825" lon="-4.50425">
        <ele>43.583</ele>
        <time>2011-04-07T09:38:42Z</time>
      </trkpt>
      <trkpt lat="48.38245" lon="-4.5042">
        <ele>43.9</ele>
        <time>2011-04-07T09:38:45Z</time>
      </trkpt>
      <trkpt lat="48.38245" lon="-4.50442">
        <ele>44.151</ele>
        <time>2011-04-07T09:38:51Z</time>
      </trkpt>
      <trkpt lat="48.38248" lon="-4.50462">
        <ele>44.268</ele>
        <time>2011-04-07T09:38:55Z</time>
      </trkpt>
      <trkpt lat="48.38251" lon="-4.5048">
        <ele>44.37</ele>
        <time>2011-04-07T09:38:58Z</time>
      </trkpt>
      <trkpt lat="48.38266" lon="-4.5059">
        <ele>47.673</ele>
        <time>2011-04-07T09:39:16Z</time>
      </trkpt>
      <trkpt lat="48.38269" lon="-4.5062">
        <ele>49.099</ele>
        <time>2011-04-07T09:39:26Z</time>
      </trkpt>
    </trkseg>
  </trk>
  <trk>
    <name><![CDATA[ACTIVE LOG114911]]></name>
    <trkseg>
      <trkpt lat="48.38266" lon="-4.50622">
        <ele>94.307</ele>
        <time>2011-04-07T09:49:11Z</time>
      </trkpt>
    </trkseg>
  </trk>
</gpx>